DL71 / N837MH 7700 Squawk Report (10th of August, 2022)

Aircraft B764 Reg No. N837MH Age 21 years old
Model 767 Jet engines 2 First flight 11-12-00
Registered 21-12-00 Rollout 26-11-00 Delivered 20-12-00
Construction No. 29710 Line No. 0820 Series 432(ER)
ADSHEX AB7376 Airline name Delta Air Lines Owner N/A
Airfield based Atlanta-Hartsfield~GA~N First tracked N/A

Flight history for N837MH

Route Flight No Date Playback
Hartsfield Jackson Atlanta Intl (ATL) - CWF DL9937 2022-10-02 22:06:00
Munich Airport (MUC) - Hartsfield Jackson Atlanta Intl (ATL) DL131 2022-10-01 00:26:00
Hartsfield Jackson Atlanta Intl (ATL) - Munich Airport (MUC) DL130 2022-09-30 06:49:00
Schiphol (AMS) - Hartsfield Jackson Atlanta Intl (ATL) DL73 2022-09-29 18:56:00
Hartsfield Jackson Atlanta Intl (ATL) - Schiphol (AMS) DL72 2022-09-29 09:19:00
Ministro Pistarini (EZE) - Hartsfield Jackson Atlanta Intl (ATL) DL110 2022-09-28 12:45:00
Hartsfield Jackson Atlanta Intl (ATL) - Ministro Pistarini (EZE) DL101 2022-09-27 09:00:00
La Guardia (LGA) - Pierre Elliott Trudeau (YUL) DL5067 2022-09-26 14:36:00
La Guardia (LGA) - Pierre Elliott Trudeau (YUL) DL5067 2022-09-26 05:24:00
Heathrow (LHR) - Hartsfield Jackson Atlanta Intl (ATL) DL31 2022-09-25 00:18:00
John F Kennedy Intl (JFK) - Heathrow (LHR) DL1 2022-09-24 11:32:00
Heathrow (LHR) - John F Kennedy Intl (JFK) DL2 2022-09-24 00:01:00
Logan International Airport (BOS) - Heathrow (LHR) DL58 2022-09-23 10:28:00
Heathrow (LHR) - Logan International Airport (BOS) DL59 2022-09-22 16:00:00
Hartsfield Jackson Atlanta Intl (ATL) - Heathrow (LHR) DL30 2022-09-22 05:57:00
Barajas (MAD) - Hartsfield Jackson Atlanta Intl (ATL) DL109 2022-09-20 20:30:00
John F Kennedy Intl (JFK) - Barajas (MAD) DL126 2022-09-20 06:52:00
Malpensa (MXP) - John F Kennedy Intl (JFK) DL185 2022-09-19 19:44:00
John F Kennedy Intl (JFK) - Malpensa (MXP) DL184 2022-09-19 08:01:00
Los Angeles Intl (LAX) - John F Kennedy Intl (JFK) DL392 2022-09-18 22:03:00
Time Lat Lon Altitude Heading Speed Vertical Rate
2022-08-10 08:22:45 GMT 52.312019 4.771633 0 182 0
2022-08-10 08:22:37 GMT 52.312042 4.771633 0 182 1
2022-08-10 08:22:20 GMT 52.312180 4.771652 0 182 3
2022-08-10 08:22:17 GMT 52.312214 4.771652 0 185 4
2022-08-10 08:22:16 GMT 52.312229 4.771657 0 185 4
2022-08-10 08:22:13 GMT 52.312271 4.771652 0 185 4
2022-08-10 08:22:10 GMT 52.312344 4.771657 0 185 5
2022-08-10 08:21:44 GMT 52.312992 4.771881 0 270 7
2022-08-10 08:21:39 GMT 52.312992 4.772110 0 272 8
2022-08-10 08:21:38 GMT 52.312984 4.772206 0 272 8
2022-08-10 08:21:36 GMT 52.312984 4.772304 0 272 9
2022-08-10 08:21:35 GMT 52.312981 4.772511 0 275 10
2022-08-10 08:21:29 GMT 52.312958 4.772892 0 272 11
2022-08-10 08:21:27 GMT 52.312950 4.773010 0 272 11
2022-08-10 08:21:26 GMT 52.312939 4.773187 0 272 10
2022-08-10 08:21:25 GMT 52.312946 4.773254 0 272 10
2022-08-10 08:21:23 GMT 52.312935 4.773350 0 272 10
2022-08-10 08:21:20 GMT 52.312927 4.773540 0 272 10
2022-08-10 08:21:16 GMT 52.312923 4.773750 0 272 9
2022-08-10 08:21:15 GMT 52.312927 4.773795 0 272 9
2022-08-10 08:21:14 GMT 52.312923 4.773865 0 272 9
2022-08-10 08:21:11 GMT 52.312912 4.774113 0 272 11
2022-08-10 08:21:09 GMT 52.312901 4.774265 0 272 11
2022-08-10 08:21:08 GMT 52.312901 4.774361 0 272 11
2022-08-10 08:21:07 GMT 52.312904 4.774423 0 275 10
2022-08-10 08:21:04 GMT 52.312889 4.774619 0 275 10
2022-08-10 08:21:03 GMT 52.312878 4.774737 0 275 10
2022-08-10 08:20:56 GMT 52.312855 4.775200 0 275 9
2022-08-10 08:20:55 GMT 52.312855 4.775276 0 275 9
2022-08-10 08:20:53 GMT 52.312843 4.775404 0 275 9
2022-08-10 08:20:51 GMT 52.312843 4.775543 0 278 9
2022-08-10 08:20:46 GMT 52.312832 4.775887 0 295 10
2022-08-10 08:20:45 GMT 52.312832 4.775963 0 303 10
2022-08-10 08:20:44 GMT 52.312820 4.776031 0 309 10
2022-08-10 08:20:40 GMT 52.312740 4.776287 0 340 8
We lost coverage of the aircraft here for a total of 37 minutes
2022-08-10 07:43:50 GMT 52.302841 4.767570 0 22 9 0
2022-08-10 07:43:42 GMT 52.302589 4.767284 0 22 9 0
2022-08-10 07:43:40 GMT 52.302509 4.767227 0 22 8 0
2022-08-10 07:43:32 GMT 52.302269 4.767075 0 25 7 0
2022-08-10 07:42:53 GMT 52.301964 4.766830 0 28 0 0
2022-08-10 07:42:46 GMT 52.301964 4.766830 0 28 0 0
2022-08-10 07:42:41 GMT 52.301941 4.766811 0 28 3 0
2022-08-10 07:42:25 GMT 52.301468 4.766407 0 28 11 0
2022-08-10 07:42:21 GMT 52.301273 4.766235 0 28 11 0
2022-08-10 07:42:08 GMT 52.300461 4.765536 0 30 21 0
2022-08-10 07:42:05 GMT 52.300289 4.765358 0 36 23 0
2022-08-10 07:42:04 GMT 52.300209 4.765263 0 36 24 0
2022-08-10 07:41:58 GMT 52.299648 4.764457 0 56 33 0
2022-08-10 07:41:51 GMT 52.299007 4.762946 0 56 38 0
2022-08-10 07:41:49 GMT 52.298904 4.762707 0 59 39 0
2022-08-10 07:41:44 GMT 52.298286 4.761082 0 59 55 0
2022-08-10 07:41:40 GMT 52.297714 4.759598 0 59 72 0
2022-08-10 07:41:36 GMT 52.296642 4.756825 0 59 92 0
2022-08-10 07:41:34 GMT 52.296642 4.756825 -400 59 92 0
2022-08-10 07:41:32 GMT 52.296272 4.755824 -400 58 109 0
2022-08-10 07:41:30 GMT 52.295883 4.754868 -400 58 109 0
2022-08-10 07:41:29 GMT 52.292130 4.745074 -400 57 118 -128
2022-08-10 07:41:19 GMT 52.292130 4.745074 -400 57 160 -256
2022-08-10 07:41:18 GMT 52.291397 4.743118 -375 57 160 -256
2022-08-10 07:41:14 GMT 52.290207 4.739990 -375 57 160 -448
2022-08-10 07:41:11 GMT 52.288357 4.735264 -325 57 160 -832
2022-08-10 07:41:07 GMT 52.287243 4.732439 -275 57 158 -896
2022-08-10 07:41:05 GMT 52.286636 4.730948 -250 57 158 -896
2022-08-10 07:41:04 GMT 52.286263 4.729928 -250 57 157 -896
2022-08-10 07:41:03 GMT 52.285660 4.728437 -225 57 156 -768
2022-08-10 07:41:01 GMT 52.285007 4.726711 -200 57 156 -704
2022-08-10 07:40:59 GMT 52.283890 4.723740 -175 58 156 -640
2022-08-10 07:40:57 GMT 52.283379 4.722395 -150 58 156 -704
2022-08-10 07:40:56 GMT 52.282104 4.719162 -125 58 157 -832
2022-08-10 07:40:54 GMT 52.282104 4.719162 -100 58 157 -960
2022-08-10 07:40:53 GMT 52.281738 4.718170 -100 58 157 -960
2022-08-10 07:40:50 GMT 52.280537 4.714940 -50 57 159 -832
2022-08-10 07:40:49 GMT 52.280167 4.713920 -25 57 159 -832
2022-08-10 07:40:46 GMT 52.278946 4.710846 0 57 159 -832
2022-08-10 07:40:44 GMT 52.278122 4.708710 50 57 159 -896
2022-08-10 07:40:42 GMT 52.277344 4.706726 75 57 159 -832
2022-08-10 07:40:40 GMT 52.276672 4.704895 75 58 159 -832
2022-08-10 07:40:39 GMT 52.276253 4.703875 100 58 159 -832
2022-08-10 07:40:38 GMT 52.275833 4.702776 125 57 159 -768
2022-08-10 07:40:35 GMT 52.275055 4.700699 150 57 159 -832
2022-08-10 07:40:34 GMT 52.274643 4.699631 175 57 158 -768
2022-08-10 07:40:33 GMT 52.274300 4.698696 175 58 159 -832
2022-08-10 07:40:32 GMT 52.273834 4.697597 200 57 158 -768
2022-08-10 07:40:30 GMT 52.273041 4.695435 225 57 158 -832
2022-08-10 07:40:29 GMT 52.272583 4.694290 250 57 159 -832
2022-08-10 07:40:27 GMT 52.271805 4.692230 250 58 159 -768
2022-08-10 07:40:26 GMT 52.271412 4.691162 275 58 159 -832
2022-08-10 07:40:25 GMT 52.270992 4.690142 300 58 159 -832
2022-08-10 07:40:24 GMT 52.270248 4.688180 325 57 160 -768
2022-08-10 07:40:22 GMT 52.269836 4.687119 350 57 160 -768
2022-08-10 07:40:21 GMT 52.269104 4.685211 350 57 160 -768
2022-08-10 07:40:19 GMT 52.268665 4.684099 375 57 160 -768
2022-08-10 07:40:18 GMT 52.268246 4.683001 400 57 160 -832
2022-08-10 07:40:16 GMT 52.267456 4.681015 425 57 160 -832
2022-08-10 07:40:15 GMT 52.267082 4.680019 425 57 160 -832
2022-08-10 07:40:14 GMT 52.266724 4.679031 450 57 160 -832
2022-08-10 07:40:12 GMT 52.265900 4.677048 475 57 160 -832
2022-08-10 07:40:11 GMT 52.265499 4.675938 500 57 160 -832
2022-08-10 07:40:10 GMT 52.265076 4.674911 500 57 160 -832
2022-08-10 07:40:08 GMT 52.264290 4.672799 525 57 160 -832
2022-08-10 07:40:07 GMT 52.263885 4.671783 550 58 159 -832
2022-08-10 07:40:06 GMT 52.262970 4.669342 575 58 159 -832
2022-08-10 07:40:03 GMT 52.262337 4.667698 600 58 158 -768
2022-08-10 07:40:02 GMT 52.261402 4.665266 625 58 159 -768
2022-08-10 07:40:00 GMT 52.261078 4.664324 650 58 159 -832
2022-08-10 07:39:59 GMT 52.260635 4.663239 650 57 158 -832
2022-08-10 07:39:57 GMT 52.259914 4.661264 675 57 158 -832
2022-08-10 07:39:56 GMT 52.259541 4.660400 700 57 159 -832
2022-08-10 07:39:55 GMT 52.258713 4.658203 725 57 159 -832
2022-08-10 07:39:52 GMT 52.258099 4.656634 750 57 159 -896
2022-08-10 07:39:51 GMT 52.257660 4.655533 775 58 159 -896
2022-08-10 07:39:50 GMT 52.257309 4.654593 800 58 159 -832
2022-08-10 07:39:48 GMT 52.256283 4.651925 800 58 159 -832
2022-08-10 07:39:47 GMT 52.255966 4.651031 825 57 160 -832
2022-08-10 07:39:46 GMT 52.255585 4.650042 850 57 160 -832
2022-08-10 07:39:44 GMT 52.254745 4.647923 875 57 160 -832
2022-08-10 07:39:43 GMT 52.254330 4.646824 875 57 160 -832
2022-08-10 07:39:40 GMT 52.253311 4.644165 925 57 160 -832
2022-08-10 07:39:38 GMT 52.252487 4.642029 950 57 160 -832
2022-08-10 07:39:37 GMT 52.252167 4.641113 975 57 159 -832
2022-08-10 07:39:36 GMT 52.251297 4.638977 975 57 160 -832
2022-08-10 07:39:34 GMT 52.250881 4.637957 1,025 57 160 -832
2022-08-10 07:39:33 GMT 52.250557 4.637015 1,025 57 160 -832
2022-08-10 07:39:32 GMT 52.249969 4.635544 1,050 57 160 -768
2022-08-10 07:39:30 GMT 52.249252 4.633641 1,075 57 160 -832
2022-08-10 07:39:28 GMT 52.248417 4.631601 1,100 57 160 -832
2022-08-10 07:39:27 GMT 52.247955 4.630432 1,100 57 160 -832
2022-08-10 07:39:26 GMT 52.247635 4.629440 1,125 57 160 -832
2022-08-10 07:39:25 GMT 52.246414 4.626343 1,150 57 160 -832
2022-08-10 07:39:23 GMT 52.246414 4.626343 1,150 57 160 -832
2022-08-10 07:39:22 GMT 52.245716 4.624616 1,175 57 160 -768
2022-08-10 07:39:20 GMT 52.245205 4.623282 1,200 57 160 -768
2022-08-10 07:39:19 GMT 52.244785 4.622184 1,225 57 160 -768
2022-08-10 07:39:17 GMT 52.244320 4.621007 1,225 57 160 -832
2022-08-10 07:39:16 GMT 52.243515 4.618912 1,250 57 160 -896
2022-08-10 07:39:13 GMT 52.242504 4.616298 1,300 57 161 -960
2022-08-10 07:39:12 GMT 52.241993 4.614964 1,325 57 161 -960
2022-08-10 07:39:10 GMT 52.241180 4.612885 1,350 57 161 -960
2022-08-10 07:39:09 GMT 52.240814 4.611969 1,350 57 161 -960
2022-08-10 07:39:08 GMT 52.239990 4.609756 1,400 57 163 -960
2022-08-10 07:39:06 GMT 52.239571 4.608686 1,400 57 163 -960
2022-08-10 07:39:05 GMT 52.239349 4.608078 1,425 57 163 -960
2022-08-10 07:39:04 GMT 52.238525 4.605865 1,450 57 164 -1024
2022-08-10 07:39:02 GMT 52.238129 4.604919 1,475 57 164 -1024
2022-08-10 07:39:01 GMT 52.237572 4.603428 1,500 57 165 -1024
2022-08-10 07:38:59 GMT 52.236786 4.601517 1,525 57 165 -960
2022-08-10 07:38:58 GMT 52.236374 4.600372 1,550 57 165 -896
2022-08-10 07:38:56 GMT 52.235615 4.598406 1,575 57 165 -768
2022-08-10 07:38:54 GMT 52.234962 4.596758 1,575 57 164 -640
2022-08-10 07:38:53 GMT 52.234497 4.595490 1,600 57 163 -512
2022-08-10 07:38:52 GMT 52.234077 4.594482 1,600 57 163 -448
2022-08-10 07:38:50 GMT 52.233288 4.592442 1,625 57 163 -320
2022-08-10 07:38:49 GMT 52.232895 4.591446 1,625 57 163 -192
2022-08-10 07:38:47 GMT 52.231983 4.588989 1,625 57 163 -128
2022-08-10 07:38:46 GMT 52.231609 4.588048 1,625 57 163 0
2022-08-10 07:38:45 GMT 52.230835 4.585953 1,625 57 163 0
2022-08-10 07:38:43 GMT 52.230423 4.584961 1,625 57 163 0
2022-08-10 07:38:41 GMT 52.229610 4.582790 1,625 57 163 0
2022-08-10 07:38:40 GMT 52.229233 4.581757 1,625 57 164 0
2022-08-10 07:38:39 GMT 52.228771 4.580671 1,625 57 164 0
2022-08-10 07:38:37 GMT 52.227905 4.578476 1,625 57 164 0
2022-08-10 07:38:36 GMT 52.227493 4.577408 1,625 57 164 0
2022-08-10 07:38:35 GMT 52.226490 4.574707 1,625 57 164 0
2022-08-10 07:38:32 GMT 52.226212 4.574079 1,625 57 163 0
2022-08-10 07:38:31 GMT 52.225754 4.572906 1,625 57 163 0
2022-08-10 07:38:30 GMT 52.225388 4.571838 1,625 57 163 0
2022-08-10 07:38:28 GMT 52.224518 4.569702 1,625 57 163 0
2022-08-10 07:38:26 GMT 52.223698 4.567566 1,625 57 163 0
2022-08-10 07:38:25 GMT 52.222870 4.565353 1,625 57 163 0
2022-08-10 07:38:22 GMT 52.222229 4.563675 1,625 57 163 0
2022-08-10 07:38:20 GMT 52.221321 4.561366 1,625 57 163 0
2022-08-10 07:38:19 GMT 52.220764 4.559875 1,625 57 163 0
2022-08-10 07:38:18 GMT 52.220352 4.558792 1,625 57 163 0
2022-08-10 07:38:17 GMT 52.219574 4.556808 1,625 57 163 0
2022-08-10 07:38:15 GMT 52.219162 4.555817 1,625 57 163 0
2022-08-10 07:38:14 GMT 52.218716 4.554696 1,625 57 163 0
2022-08-10 07:38:11 GMT 52.217514 4.551620 1,625 57 164 0
2022-08-10 07:38:09 GMT 52.216667 4.549517 1,625 57 164 0
2022-08-10 07:38:07 GMT 52.215317 4.546064 1,625 57 163 0
2022-08-10 07:38:05 GMT 52.214859 4.544907 1,625 57 164 0
2022-08-10 07:38:03 GMT 52.214264 4.543304 1,625 57 164 0
2022-08-10 07:38:02 GMT 52.213223 4.540649 1,625 57 163 0
2022-08-10 07:38:00 GMT 52.213223 4.540649 1,625 57 163 0
2022-08-10 07:37:59 GMT 52.212620 4.539080 1,625 57 163 0
2022-08-10 07:37:57 GMT 52.211838 4.537048 1,625 58 163 0
2022-08-10 07:37:56 GMT 52.211407 4.535941 1,625 58 163 0
2022-08-10 07:37:55 GMT 52.210648 4.533920 1,625 58 163 0
2022-08-10 07:37:53 GMT 52.210243 4.532881 1,625 58 163 64
2022-08-10 07:37:52 GMT 52.209869 4.531860 1,625 58 163 64
2022-08-10 07:37:51 GMT 52.209080 4.529742 1,625 58 163 128
2022-08-10 07:37:49 GMT 52.208660 4.528721 1,625 57 163 128
2022-08-10 07:37:48 GMT 52.208286 4.527780 1,625 57 163 128
2022-08-10 07:37:47 GMT 52.207901 4.526672 1,600 57 163 128
2022-08-10 07:37:46 GMT 52.207031 4.524562 1,600 57 164 64
2022-08-10 07:37:44 GMT 52.206619 4.523468 1,600 56 164 0
2022-08-10 07:37:43 GMT 52.206192 4.522365 1,600 56 166 0
2022-08-10 07:37:41 GMT 52.205311 4.520168 1,600 56 166 -64
2022-08-10 07:37:40 GMT 52.204891 4.519148 1,600 57 167 -128
2022-08-10 07:37:39 GMT 52.203918 4.516754 1,625 57 168 -128
2022-08-10 07:37:36 GMT 52.202820 4.513931 1,625 57 171 -192
2022-08-10 07:37:33 GMT 52.201950 4.511642 1,625 57 173 -192
2022-08-10 07:37:30 GMT 52.200562 4.508161 1,625 57 176 -64
2022-08-10 07:37:29 GMT 52.200188 4.507141 1,625 57 177 0
2022-08-10 07:37:28 GMT 52.199707 4.505997 1,625 57 178 0
2022-08-10 07:37:27 GMT 52.199257 4.504787 1,625 57 179 0
2022-08-10 07:37:26 GMT 52.198380 4.502563 1,625 57 179 0
2022-08-10 07:37:23 GMT 52.197510 4.500275 1,625 57 179 64
2022-08-10 07:37:21 GMT 52.196510 4.497646 1,625 57 179 64
2022-08-10 07:37:19 GMT 52.195816 4.495773 1,625 57 179 192
2022-08-10 07:37:17 GMT 52.194881 4.493408 1,625 57 179 192
2022-08-10 07:37:16 GMT 52.194462 4.492310 1,625 57 179 192
2022-08-10 07:37:14 GMT 52.192886 4.488220 1,600 57 179 128
2022-08-10 07:37:12 GMT 52.192886 4.488220 1,600 57 179 128
2022-08-10 07:37:11 GMT 52.192474 4.487228 1,600 57 179 64
2022-08-10 07:37:09 GMT 52.191063 4.483521 1,600 57 179 -64
2022-08-10 07:37:07 GMT 52.190598 4.482343 1,600 57 179 -128
2022-08-10 07:37:06 GMT 52.190140 4.481201 1,600 57 180 -128
2022-08-10 07:37:04 GMT 52.189247 4.478969 1,600 57 180 -192
2022-08-10 07:37:02 GMT 52.188599 4.477400 1,625 57 180 -256
2022-08-10 07:37:01 GMT 52.187256 4.474030 1,625 57 181 -192
2022-08-10 07:36:59 GMT 52.186798 4.472885 1,650 57 181 -128
2022-08-10 07:36:58 GMT 52.186386 4.471741 1,650 58 181 -64
2022-08-10 07:36:55 GMT 52.185196 4.468613 1,650 59 181 -64
2022-08-10 07:36:53 GMT 52.184326 4.466248 1,650 60 180 0
2022-08-10 07:36:51 GMT 52.183594 4.464111 1,650 63 180 64
2022-08-10 07:36:49 GMT 52.182823 4.461626 1,625 63 180 64
2022-08-10 07:36:47 GMT 52.182129 4.459381 1,625 65 179 128
2022-08-10 07:36:46 GMT 52.180939 4.454727 1,625 70 179 128
2022-08-10 07:36:44 GMT 52.180939 4.454727 1,625 71 179 128
2022-08-10 07:36:43 GMT 52.180683 4.453465 1,625 73 179 128
2022-08-10 07:36:40 GMT 52.180161 4.450302 1,625 75 179 128
2022-08-10 07:36:39 GMT 52.179932 4.448471 1,600 80 179 64
2022-08-10 07:36:38 GMT 52.179749 4.446030 1,600 84 179 64
2022-08-10 07:36:36 GMT 52.179707 4.444676 1,600 86 179 64
2022-08-10 07:36:35 GMT 52.179657 4.443207 1,600 90 180 64
2022-08-10 07:36:34 GMT 52.179661 4.441772 1,600 91 180 64
2022-08-10 07:36:32 GMT 52.179703 4.439011 1,600 92 180 64
2022-08-10 07:36:30 GMT 52.179844 4.433533 1,600 92 181 0
2022-08-10 07:36:28 GMT 52.179844 4.433533 1,600 92 181 0
2022-08-10 07:36:27 GMT 52.179886 4.432144 1,600 92 181 -64
2022-08-10 07:36:26 GMT 52.179932 4.430771 1,600 92 182 -64
2022-08-10 07:36:24 GMT 52.180023 4.427795 1,625 92 183 -64
2022-08-10 07:36:23 GMT 52.180023 4.426422 1,625 92 183 -64
2022-08-10 07:36:21 GMT 52.180115 4.423370 1,625 92 184 -128
2022-08-10 07:36:20 GMT 52.180122 4.422076 1,625 91 185 -128
2022-08-10 07:36:19 GMT 52.180161 4.421234 1,625 91 185 -128
2022-08-10 07:36:17 GMT 52.180206 4.417801 1,625 91 186 -192
2022-08-10 07:36:16 GMT 52.180218 4.417053 1,625 91 186 -128
2022-08-10 07:36:15 GMT 52.180264 4.415484 1,625 91 186 -128
2022-08-10 07:36:14 GMT 52.180309 4.412423 1,650 91 186 -128
2022-08-10 07:36:11 GMT 52.180344 4.410400 1,650 91 186 -128
2022-08-10 07:36:10 GMT 52.180389 4.408875 1,650 91 186 -64
2022-08-10 07:36:09 GMT 52.180405 4.407636 1,650 92 185 0
2022-08-10 07:36:06 GMT 52.180496 4.404184 1,650 92 185 64
2022-08-10 07:36:04 GMT 52.180637 4.400024 1,650 94 184 128
2022-08-10 07:36:02 GMT 52.180775 4.397827 1,625 97 183 128
2022-08-10 07:36:00 GMT 52.180962 4.395238 1,625 100 183 128
2022-08-10 07:35:58 GMT 52.181259 4.392548 1,625 102 183 128
2022-08-10 07:35:57 GMT 52.181427 4.391235 1,625 104 183 128
2022-08-10 07:35:56 GMT 52.181660 4.389823 1,625 109 184 128
2022-08-10 07:35:54 GMT 52.182220 4.387131 1,600 111 184 128
2022-08-10 07:35:52 GMT 52.183319 4.383316 1,600 119 185 64
2022-08-10 07:35:50 GMT 52.183731 4.382172 1,600 122 186 64
2022-08-10 07:35:49 GMT 52.184235 4.380951 1,600 124 187 0
2022-08-10 07:35:47 GMT 52.185291 4.378601 1,600 129 189 -64
2022-08-10 07:35:46 GMT 52.185848 4.377502 1,600 133 191 -128
2022-08-10 07:35:45 GMT 52.186363 4.376561 1,600 133 191 -128
2022-08-10 07:35:44 GMT 52.187027 4.375534 1,625 137 194 -192
2022-08-10 07:35:42 GMT 52.188629 4.373093 1,625 140 196 -192
2022-08-10 07:35:41 GMT 52.189342 4.372166 1,625 141 198 -192
2022-08-10 07:35:40 GMT 52.189995 4.371303 1,625 142 198 -192
2022-08-10 07:35:38 GMT 52.191513 4.369431 1,625 142 200 -128
2022-08-10 07:35:37 GMT 52.192272 4.368478 1,625 143 202 -128
2022-08-10 07:35:36 GMT 52.193069 4.367523 1,625 143 203 -64
2022-08-10 07:35:35 GMT 52.193802 4.366608 1,625 144 205 -64
2022-08-10 07:35:32 GMT 52.196232 4.363770 1,650 148 209 0
2022-08-10 07:35:31 GMT 52.196915 4.363022 1,650 148 209 0
2022-08-10 07:35:28 GMT 52.200188 4.359767 1,625 153 210 192
2022-08-10 07:35:25 GMT 52.202003 4.358355 1,625 157 212 256
2022-08-10 07:35:24 GMT 52.203911 4.357099 1,625 161 213 128
2022-08-10 07:35:21 GMT 52.205750 4.356155 1,625 166 214 64
2022-08-10 07:35:19 GMT 52.206799 4.355765 1,600 168 215 64
2022-08-10 07:35:17 GMT 52.208908 4.355164 1,600 173 215 0
2022-08-10 07:35:16 GMT 52.209778 4.355011 1,600 174 216 -64
2022-08-10 07:35:15 GMT 52.210617 4.354902 1,625 178 218 -64
2022-08-10 07:35:14 GMT 52.212620 4.354745 1,625 181 218 -64
2022-08-10 07:35:12 GMT 52.213989 4.354782 1,625 182 218 -64
2022-08-10 07:35:10 GMT 52.215729 4.354858 1,625 184 219 0
2022-08-10 07:35:09 GMT 52.216599 4.354935 1,625 184 219 0
2022-08-10 07:35:08 GMT 52.217743 4.355087 1,625 184 219 0
2022-08-10 07:35:06 GMT 52.219757 4.355316 1,625 185 219 0
2022-08-10 07:35:05 GMT 52.220764 4.355392 1,625 185 219 0
2022-08-10 07:35:04 GMT 52.221928 4.355530 1,625 185 219 0
2022-08-10 07:35:01 GMT 52.224953 4.355922 1,625 185 219 0
2022-08-10 07:35:00 GMT 52.227097 4.356158 1,625 185 219 0
2022-08-10 07:34:58 GMT 52.228119 4.356315 1,625 185 219 0
2022-08-10 07:34:56 GMT 52.230606 4.356613 1,625 185 219 0
2022-08-10 07:34:53 GMT 52.235474 4.357178 1,625 185 219 0
2022-08-10 07:34:51 GMT 52.235474 4.357178 1,625 185 218 0
2022-08-10 07:34:49 GMT 52.236557 4.357376 1,625 185 218 0
2022-08-10 07:34:48 GMT 52.239166 4.357681 1,625 185 218 0
2022-08-10 07:34:46 GMT 52.240311 4.357834 1,625 185 218 64
2022-08-10 07:34:44 GMT 52.242691 4.358139 1,625 185 218 64
2022-08-10 07:34:42 GMT 52.244522 4.358368 1,625 185 218 64
2022-08-10 07:34:40 GMT 52.246601 4.358590 1,625 185 218 64
2022-08-10 07:34:39 GMT 52.247486 4.358747 1,625 185 218 0
2022-08-10 07:34:37 GMT 52.249722 4.359061 1,625 185 218 0
2022-08-10 07:34:36 GMT 52.250748 4.359131 1,625 185 218 0
2022-08-10 07:34:34 GMT 52.252747 4.359453 1,625 185 219 0
2022-08-10 07:34:32 GMT 52.254227 4.359589 1,625 185 219 0
2022-08-10 07:34:31 GMT 52.255600 4.359818 1,625 185 219 0
2022-08-10 07:34:30 GMT 52.257496 4.360081 1,625 185 220 0
2022-08-10 07:34:28 GMT 52.258518 4.360238 1,625 185 220 -64
2022-08-10 07:34:27 GMT 52.259491 4.360352 1,625 185 220 -64
2022-08-10 07:34:25 GMT 52.261543 4.360631 1,625 185 220 -64
2022-08-10 07:34:24 GMT 52.262569 4.360788 1,625 186 220 -64
2022-08-10 07:34:23 GMT 52.265167 4.361191 1,625 186 220 -128
2022-08-10 07:34:21 GMT 52.265736 4.361258 1,625 186 221 -128
2022-08-10 07:34:20 GMT 52.266850 4.361415 1,625 186 221 -128
2022-08-10 07:34:19 GMT 52.268898 4.361729 1,625 186 221 -128
2022-08-10 07:34:17 GMT 52.269974 4.361877 1,625 186 221 -128
2022-08-10 07:34:16 GMT 52.271042 4.362043 1,625 186 221 -128
2022-08-10 07:34:15 GMT 52.273273 4.362357 1,650 186 221 -64
2022-08-10 07:34:12 GMT 52.275417 4.362749 1,650 186 220 0
2022-08-10 07:34:11 GMT 52.276394 4.362828 1,650 185 220 0
2022-08-10 07:34:10 GMT 52.278397 4.363174 1,650 185 220 64
2022-08-10 07:34:08 GMT 52.279495 4.363251 1,650 184 219 64
2022-08-10 07:34:07 GMT 52.280071 4.363377 1,625 183 219 128
2022-08-10 07:34:04 GMT 52.283424 4.363613 1,625 182 219 128
2022-08-10 07:34:03 GMT 52.284309 4.363613 1,625 180 218 128
2022-08-10 07:34:01 GMT 52.287369 4.363556 1,625 175 216 64
2022-08-10 07:34:00 GMT 52.287369 4.363556 1,625 175 216 64
2022-08-10 07:33:58 GMT 52.289337 4.363299 1,625 171 216 0
2022-08-10 07:33:56 GMT 52.290733 4.362985 1,625 169 215 0
2022-08-10 07:33:55 GMT 52.291763 4.362640 1,625 167 215 0
2022-08-10 07:33:53 GMT 52.293320 4.362030 1,625 162 214 0
2022-08-10 07:33:51 GMT 52.295620 4.360788 1,625 158 214 -64
2022-08-10 07:33:50 GMT 52.297394 4.359512 1,625 153 213 -64
2022-08-10 07:33:48 GMT 52.298225 4.358826 1,625 151 214 -64
2022-08-10 07:33:47 GMT 52.299065 4.358119 1,625 148 212 -64
2022-08-10 07:33:46 GMT 52.300041 4.357178 1,625 148 212 -64
2022-08-10 07:33:44 GMT 52.301674 4.355451 1,625 145 213 -64
2022-08-10 07:33:42 GMT 52.303303 4.353568 1,625 143 212 0
2022-08-10 07:33:41 GMT 52.304123 4.352570 1,625 143 212 0
2022-08-10 07:33:40 GMT 52.304855 4.351730 1,625 143 212 0
2022-08-10 07:33:39 GMT 52.306503 4.349747 1,625 143 212 0
2022-08-10 07:33:37 GMT 52.307213 4.348781 1,625 143 212 0
2022-08-10 07:33:36 GMT 52.307957 4.347918 1,625 143 212 0
2022-08-10 07:33:34 GMT 52.309570 4.346008 1,625 143 212 0
2022-08-10 07:33:33 GMT 52.310284 4.345093 1,625 143 212 0
2022-08-10 07:33:32 GMT 52.311127 4.344101 1,625 143 212 0
2022-08-10 07:33:30 GMT 52.312637 4.342270 1,625 143 212 0
2022-08-10 07:33:29 GMT 52.313450 4.341248 1,625 143 212 0
2022-08-10 07:33:28 GMT 52.314285 4.340210 1,625 143 212 0
2022-08-10 07:33:26 GMT 52.315868 4.338266 1,625 143 212 0
2022-08-10 07:33:25 GMT 52.316662 4.337324 1,625 143 210 0
2022-08-10 07:33:24 GMT 52.317581 4.336243 1,625 143 210 0
2022-08-10 07:33:23 GMT 52.319035 4.334499 1,625 143 210 0
2022-08-10 07:33:21 GMT 52.320053 4.333191 1,625 143 210 0
2022-08-10 07:33:20 GMT 52.320713 4.332380 1,625 143 210 0
2022-08-10 07:33:17 GMT 52.323029 4.329605 1,625 143 210 64
2022-08-10 07:33:16 GMT 52.324528 4.327750 1,625 143 210 64
2022-08-10 07:33:14 GMT 52.325363 4.326706 1,625 143 209 64
2022-08-10 07:33:13 GMT 52.326187 4.325714 1,625 143 209 64
2022-08-10 07:33:11 GMT 52.327698 4.323883 1,625 143 209 64
2022-08-10 07:33:10 GMT 52.328487 4.322885 1,625 143 209 128
2022-08-10 07:33:08 GMT 52.330021 4.321001 1,625 143 210 128
2022-08-10 07:33:07 GMT 52.331139 4.319667 1,625 143 210 128
2022-08-10 07:33:06 GMT 52.331543 4.319153 1,625 143 210 64
2022-08-10 07:33:05 GMT 52.332550 4.317932 1,600 143 210 64
2022-08-10 07:33:02 GMT 52.335003 4.314959 1,600 143 210 0
2022-08-10 07:33:00 GMT 52.336624 4.312973 1,600 143 211 -128
2022-08-10 07:32:59 GMT 52.337402 4.311981 1,625 143 211 -192
2022-08-10 07:32:58 GMT 52.338169 4.311114 1,625 143 212 -320
2022-08-10 07:32:57 GMT 52.339737 4.309158 1,625 143 212 -576
2022-08-10 07:32:55 GMT 52.340496 4.308210 1,650 143 213 -704
2022-08-10 07:32:54 GMT 52.341339 4.307251 1,650 143 213 -832
2022-08-10 07:32:52 GMT 52.342636 4.305620 1,675 143 214 -896
2022-08-10 07:32:50 GMT 52.344269 4.303665 1,725 143 215 -1152
2022-08-10 07:32:49 GMT 52.345871 4.301682 1,775 143 215 -1280
2022-08-10 07:32:47 GMT 52.346558 4.300842 1,800 143 215 -1280
2022-08-10 07:32:45 GMT 52.348160 4.298859 1,825 143 215 -1280
2022-08-10 07:32:44 GMT 52.349247 4.297538 1,850 143 215 -1280
2022-08-10 07:32:43 GMT 52.350082 4.296570 1,875 143 215 -1280
2022-08-10 07:32:40 GMT 52.352234 4.293900 1,925 143 215 -1280
2022-08-10 07:32:36 GMT 52.358093 4.286708 2,000 143 215 -1280
2022-08-10 07:32:32 GMT 52.362946 4.280777 2,200 143 216 -1408
2022-08-10 07:32:27 GMT 52.362946 4.280777 2,225 143 216 -1408
2022-08-10 07:32:24 GMT 52.364891 4.278390 2,275 142 217 -1408
2022-08-10 07:32:21 GMT 52.367477 4.275208 2,350 142 217 -1408
2022-08-10 07:32:18 GMT 52.369904 4.272232 2,425 142 217 -1408
2022-08-10 07:32:16 GMT 52.373108 4.268265 2,575 142 216 -1536
2022-08-10 07:32:13 GMT 52.373108 4.268265 2,525 142 217 -1472
2022-08-10 07:32:10 GMT 52.376450 4.264145 2,800 142 216 -1536
2022-08-10 07:32:05 GMT 52.379883 4.259872 2,750 142 216 -1536
2022-08-10 07:32:03 GMT 52.381882 4.257359 2,800 142 215 -1600
2022-08-10 07:31:59 GMT 52.384720 4.253828 2,950 142 214 -1728
2022-08-10 07:31:56 GMT 52.387329 4.250532 3,000 142 213 -1728
2022-08-10 07:31:51 GMT 52.390865 4.246137 3,225 142 210 -1792
2022-08-10 07:31:48 GMT 52.393478 4.242935 3,250 142 212 -1856
2022-08-10 07:31:46 GMT 52.395058 4.240958 3,300 142 210 -1792
2022-08-10 07:31:42 GMT 52.398239 4.237061 3,450 142 209 -1728
2022-08-10 07:31:38 GMT 52.402863 4.231339 3,600 142 209 -1664
2022-08-10 07:31:36 GMT 52.402863 4.231339 3,600 142 209 -1664
2022-08-10 07:31:32 GMT 52.405563 4.227982 3,775 142 210 -1280
2022-08-10 07:31:28 GMT 52.408604 4.224243 3,800 143 210 -1408
2022-08-10 07:31:25 GMT 52.410931 4.221340 3,850 142 210 -1216
2022-08-10 07:31:22 GMT 52.413586 4.218122 3,975 142 214 -640
2022-08-10 07:31:18 GMT 52.416458 4.214554 3,975 142 214 -576
2022-08-10 07:31:16 GMT 52.420349 4.209671 4,025 141 259 -960
2022-08-10 07:31:13 GMT 52.420349 4.209671 4,000 142 221 -768
2022-08-10 07:31:10 GMT 52.423279 4.206009 4,050 142 222 -896
2022-08-10 07:31:08 GMT 52.424618 4.204311 4,075 142 223 -896
2022-08-10 07:31:05 GMT 52.427124 4.201202 4,100 142 225 -896
2022-08-10 07:31:03 GMT 52.431244 4.195938 4,175 142 227 -832
2022-08-10 07:31:00 GMT 52.431244 4.195938 4,175 142 229 -832
2022-08-10 07:30:57 GMT 52.435696 4.190264 4,225 142 234 -768
2022-08-10 07:30:55 GMT 52.435696 4.190264 4,250 142 233 -768
2022-08-10 07:30:53 GMT 52.437931 4.187439 4,275 142 236 -832
2022-08-10 07:30:50 GMT 52.439758 4.185104 4,300 142 236 -832
2022-08-10 07:30:48 GMT 52.441498 4.182892 4,325 142 238 -832
2022-08-10 07:30:45 GMT 52.444077 4.179592 4,375 142 241 -832
2022-08-10 07:30:41 GMT 52.447800 4.174883 4,475 142 246 -896
2022-08-10 07:30:38 GMT 52.450871 4.171038 4,500 142 246 -896
2022-08-10 07:30:35 GMT 52.453480 4.167742 4,525 142 249 -896
2022-08-10 07:30:32 GMT 52.456413 4.164054 4,575 142 251 -896
2022-08-10 07:30:28 GMT 52.460091 4.159345 4,650 142 253 -896
2022-08-10 07:30:26 GMT 52.461319 4.157791 4,700 142 255 -896
2022-08-10 07:30:23 GMT 52.464092 4.154245 4,750 142 257 -896
2022-08-10 07:30:20 GMT 52.466980 4.150556 4,750 141 260 -960
2022-08-10 07:30:18 GMT 52.469284 4.147644 4,800 141 259 -960
2022-08-10 07:30:15 GMT 52.472122 4.143982 4,850 141 261 -960
2022-08-10 07:30:13 GMT 52.473450 4.142227 4,900 141 264 -896
2022-08-10 07:30:10 GMT 52.476616 4.138157 4,925 141 263 -896
2022-08-10 07:30:07 GMT 52.479549 4.134234 4,975 140 265 -896
2022-08-10 07:30:04 GMT 52.481922 4.131095 5,000 140 265 -896
2022-08-10 07:30:02 GMT 52.483429 4.129105 5,050 140 267 -896
2022-08-10 07:29:59 GMT 52.486954 4.124374 5,100 141 268 -896
2022-08-10 07:29:57 GMT 52.488998 4.121599 5,175 142 269 -1024
2022-08-10 07:29:54 GMT 52.491531 4.118423 5,175 144 270 -1152
2022-08-10 07:29:52 GMT 52.493546 4.115982 5,250 146 270 -1344
2022-08-10 07:29:48 GMT 52.497574 4.111862 5,325 155 272 -1344
2022-08-10 07:29:45 GMT 52.501659 4.108573 5,400 159 273 -1216
2022-08-10 07:29:42 GMT 52.505173 4.106369 5,450 162 274 -1152
2022-08-10 07:29:39 GMT 52.508560 4.104614 5,500 162 275 -1216
2022-08-10 07:29:37 GMT 52.511215 4.103241 5,600 162 275 -1664
2022-08-10 07:29:34 GMT 52.514183 4.101667 5,600 162 275 -1408
2022-08-10 07:29:32 GMT 52.517029 4.100266 5,950 162 277 -1664
2022-08-10 07:29:29 GMT 52.520885 4.098293 5,725 162 276 -1664
2022-08-10 07:29:27 GMT 52.523392 4.096985 5,775 162 276 -1664
2022-08-10 07:29:24 GMT 52.526474 4.095389 6,025 162 279 -1600
2022-08-10 07:29:22 GMT 52.529545 4.093820 6,900 162 285 -960
2022-08-10 07:29:19 GMT 52.533131 4.092015 6,025 162 278 -1600
2022-08-10 07:29:17 GMT 52.536060 4.090445 6,075 162 279 -1600
2022-08-10 07:29:15 GMT 52.538452 4.089203 6,125 162 279 -1536
2022-08-10 07:29:12 GMT 52.540997 4.087934 6,325 162 282 -1152
2022-08-10 07:29:09 GMT 52.545502 4.085617 6,250 162 282 -1152
2022-08-10 07:29:06 GMT 52.548752 4.083939 6,350 162 283 -1152
2022-08-10 07:29:04 GMT 52.551498 4.082489 6,325 162 283 -1216
2022-08-10 07:29:02 GMT 52.553604 4.081421 6,425 162 283 -1216
2022-08-10 07:28:59 GMT 52.558037 4.079067 6,450 162 283 -1280
2022-08-10 07:28:56 GMT 52.561340 4.077377 6,550 162 283 -1344
2022-08-10 07:28:54 GMT 52.566368 4.074672 6,550 162 284 -1216
2022-08-10 07:28:52 GMT 52.566368 4.074672 6,825 162 284 -1216
2022-08-10 07:28:49 GMT 52.571045 4.072189 6,675 161 283 -1344
2022-08-10 07:28:46 GMT 52.574142 4.070592 6,725 161 283 -1280
2022-08-10 07:28:43 GMT 52.578049 4.068451 6,800 162 284 -1216
2022-08-10 07:28:40 GMT 52.581123 4.066825 6,950 162 284 -1024
2022-08-10 07:28:37 GMT 52.584961 4.064789 6,875 162 285 -1024
2022-08-10 07:28:34 GMT 52.589584 4.062347 6,950 162 285 -832
2022-08-10 07:28:32 GMT 52.591553 4.061253 6,975 162 286 -576
2022-08-10 07:28:29 GMT 52.595695 4.059056 7,000 162 286 -256
2022-08-10 07:28:26 GMT 52.599426 4.057083 7,000 162 287 -128
2022-08-10 07:28:24 GMT 52.604095 4.054642 7,000 162 286 0
2022-08-10 07:28:22 GMT 52.607254 4.052963 7,000 162 286 0
2022-08-10 07:28:16 GMT 52.612129 4.050345 7,000 162 286 0
2022-08-10 07:28:13 GMT 52.615154 4.048776 7,000 162 286 0
2022-08-10 07:28:11 GMT 52.617233 4.047623 7,000 162 286 0
2022-08-10 07:28:08 GMT 52.622269 4.044952 7,000 162 286 0
2022-08-10 07:28:05 GMT 52.625862 4.043047 7,000 162 286 0
2022-08-10 07:28:02 GMT 52.630096 4.040833 7,000 161 286 0
2022-08-10 07:27:58 GMT 52.634491 4.038467 7,000 161 286 0
2022-08-10 07:27:55 GMT 52.637825 4.036691 7,000 161 285 0
2022-08-10 07:27:53 GMT 52.640480 4.035278 7,000 161 285 64
2022-08-10 07:27:51 GMT 52.642994 4.033944 7,000 161 284 64
2022-08-10 07:27:48 GMT 52.647766 4.031296 7,000 161 284 64
2022-08-10 07:27:45 GMT 52.650349 4.029942 7,000 161 283 64
2022-08-10 07:27:42 GMT 52.655422 4.027117 7,000 161 282 64
2022-08-10 07:27:39 GMT 52.658123 4.025626 7,000 160 281 -128
2022-08-10 07:27:35 GMT 52.663055 4.022801 7,000 160 281 -192
2022-08-10 07:27:32 GMT 52.667770 4.020081 7,025 160 282 -512
2022-08-10 07:27:29 GMT 52.670380 4.018555 7,050 161 285 -1216
2022-08-10 07:27:25 GMT 52.675278 4.015656 7,100 160 284 -1024
2022-08-10 07:27:23 GMT 52.677719 4.014247 7,350 161 284 -1152
2022-08-10 07:27:21 GMT 52.680267 4.012833 7,200 163 285 -1280
2022-08-10 07:27:18 GMT 52.683449 4.011187 7,200 163 285 -1280
2022-08-10 07:27:15 GMT 52.687866 4.009323 7,300 170 286 -1408
2022-08-10 07:27:13 GMT 52.691219 4.008440 7,350 176 287 -1472
2022-08-10 07:27:10 GMT 52.694386 4.008048 7,475 179 288 -1408
2022-08-10 07:27:07 GMT 52.698391 4.008048 7,500 186 289 -1344
2022-08-10 07:27:04 GMT 52.702332 4.008484 7,525 187 289 -1280
2022-08-10 07:27:01 GMT 52.706490 4.009382 7,625 189 290 -1216
2022-08-10 07:26:58 GMT 52.710075 4.010167 7,725 189 290 -1216
2022-08-10 07:26:55 GMT 52.715240 4.011383 7,750 189 292 -1280
2022-08-10 07:26:52 GMT 52.717800 4.012050 7,800 189 292 -1280
2022-08-10 07:26:50 GMT 52.721294 4.012835 7,900 189 293 -1280
2022-08-10 07:26:47 GMT 52.726044 4.013977 7,925 189 293 -1280
2022-08-10 07:26:45 GMT 52.728836 4.014664 7,975 189 292 -1280
2022-08-10 07:26:42 GMT 52.731304 4.015268 8,025 189 293 -1280
2022-08-10 07:26:40 GMT 52.734516 4.015974 8,100 189 293 -1280
2022-08-10 07:26:36 GMT 52.741360 4.017622 8,175 189 293 -1280
2022-08-10 07:26:33 GMT 52.743988 4.018250 8,225 188 293 -1344
2022-08-10 07:26:29 GMT 52.748657 4.019318 8,325 188 293 -1344
2022-08-10 07:26:26 GMT 52.752960 4.020309 8,375 189 293 -1344
2022-08-10 07:26:24 GMT 52.755741 4.020918 8,425 189 293 -1344
2022-08-10 07:26:22 GMT 52.759514 4.021781 8,500 189 295 -1280
2022-08-10 07:26:19 GMT 52.762939 4.022598 8,575 189 295 -1280
2022-08-10 07:26:16 GMT 52.766357 4.023429 8,600 189 295 -1280
2022-08-10 07:26:14 GMT 52.771336 4.024606 8,675 189 295 -1280
2022-08-10 07:26:10 GMT 52.775711 4.025574 8,750 188 294 -1280
2022-08-10 07:26:07 GMT 52.779018 4.026332 8,800 188 294 -1280
2022-08-10 07:26:04 GMT 52.783127 4.027328 8,850 188 295 -1280
2022-08-10 07:26:02 GMT 52.788712 4.028625 9,100 189 300 -1152
2022-08-10 07:26:00 GMT 52.788712 4.028625 9,000 188 295 -1280
2022-08-10 07:25:57 GMT 52.793839 4.029770 9,025 189 295 -1344
2022-08-10 07:25:54 GMT 52.799149 4.031067 9,075 189 296 -1344
2022-08-10 07:25:52 GMT 52.799149 4.031067 9,125 189 296 -1280
2022-08-10 07:25:50 GMT 52.801922 4.031669 9,175 189 297 -1280
2022-08-10 07:25:47 GMT 52.806808 4.032846 9,250 189 297 -1280
2022-08-10 07:25:44 GMT 52.810272 4.033661 9,300 189 297 -1280
2022-08-10 07:25:41 GMT 52.814537 4.034729 9,375 189 297 -1280
2022-08-10 07:25:37 GMT 52.824501 4.037005 9,475 189 298 -1280
2022-08-10 07:25:34 GMT 52.824501 4.037005 9,525 189 298 -1216
2022-08-10 07:25:32 GMT 52.825974 4.037323 9,550 189 299 -1216
2022-08-10 07:25:30 GMT 52.830273 4.038339 9,625 189 299 -1152
2022-08-10 07:25:27 GMT 52.833019 4.038967 9,650 189 299 -1152
2022-08-10 07:25:24 GMT 52.839722 4.040536 9,750 188 301 -1088
2022-08-10 07:25:22 GMT 52.842682 4.041214 9,750 188 301 -1088
2022-08-10 07:25:20 GMT 52.842682 4.041214 9,825 188 301 -1088
2022-08-10 07:25:16 GMT 52.847450 4.042341 9,825 188 301 -1024
2022-08-10 07:25:13 GMT 52.852249 4.043427 9,900 188 302 -896
2022-08-10 07:25:09 GMT 52.859344 4.045029 9,950 189 305 -704
2022-08-10 07:25:05 GMT 52.865513 4.046500 10,000 189 306 -384
2022-08-10 07:25:02 GMT 52.868271 4.047165 10,000 189 306 -192
2022-08-10 07:24:58 GMT 52.873718 4.048386 10,000 189 307 0
2022-08-10 07:24:55 GMT 52.877380 4.049225 10,000 189 307 0
2022-08-10 07:24:52 GMT 52.882366 4.050424 10,000 189 307 0
2022-08-10 07:24:50 GMT 52.884796 4.050980 10,000 189 307 0
2022-08-10 07:24:47 GMT 52.889008 4.051971 10,000 189 307 0
2022-08-10 07:24:44 GMT 52.892944 4.052887 10,000 189 307 0
2022-08-10 07:24:42 GMT 52.896606 4.053802 10,000 189 307 0
2022-08-10 07:24:39 GMT 52.899536 4.054489 10,000 189 307 0
2022-08-10 07:24:36 GMT 52.904522 4.055603 10,000 189 307 0
2022-08-10 07:24:33 GMT 52.909317 4.056702 10,000 189 307 0
2022-08-10 07:24:31 GMT 52.911758 4.057312 10,000 189 307 0
2022-08-10 07:24:29 GMT 52.913925 4.057800 10,000 189 307 0
2022-08-10 07:24:26 GMT 52.919838 4.059134 10,000 189 307 0
2022-08-10 07:24:23 GMT 52.927597 4.060974 10,000 189 307 0
2022-08-10 07:24:20 GMT 52.927597 4.060974 10,000 189 307 0
2022-08-10 07:24:17 GMT 52.931946 4.061966 10,000 189 307 0
2022-08-10 07:24:14 GMT 52.936020 4.062958 10,000 189 306 0
2022-08-10 07:24:12 GMT 52.937439 4.063263 10,000 189 306 0
2022-08-10 07:24:10 GMT 52.940781 4.064026 10,000 189 306 0
2022-08-10 07:24:07 GMT 52.946747 4.065412 10,000 189 306 0
2022-08-10 07:24:04 GMT 52.950935 4.066432 10,000 189 306 0
2022-08-10 07:24:01 GMT 52.952820 4.066849 10,000 189 306 0
2022-08-10 07:23:59 GMT 52.956345 4.067688 10,000 189 306 0
2022-08-10 07:23:56 GMT 52.960419 4.068604 10,000 189 306 0
2022-08-10 07:23:53 GMT 52.964111 4.069493 10,000 189 306 0
2022-08-10 07:23:51 GMT 52.967560 4.070282 10,000 189 306 0
2022-08-10 07:23:47 GMT 52.972816 4.071533 10,000 189 306 0
2022-08-10 07:23:44 GMT 52.981842 4.073715 10,000 189 306 0
2022-08-10 07:23:41 GMT 52.981842 4.073715 10,000 189 306 0
2022-08-10 07:23:38 GMT 52.989944 4.075623 10,000 189 306 0
2022-08-10 07:23:35 GMT 52.989944 4.075623 10,000 189 306 0
2022-08-10 07:23:32 GMT 52.994431 4.076691 10,000 189 306 0
2022-08-10 07:23:27 GMT 53.000237 4.078125 10,000 189 306 0
2022-08-10 07:23:24 GMT 53.005325 4.079361 10,000 189 305 0
2022-08-10 07:23:21 GMT 53.009731 4.080401 10,000 189 305 0
2022-08-10 07:23:19 GMT 53.012466 4.081039 10,000 189 305 0
2022-08-10 07:23:16 GMT 53.021530 4.083252 10,000 189 305 0
2022-08-10 07:23:13 GMT 53.021530 4.083252 10,000 189 305 0
2022-08-10 07:23:10 GMT 53.024956 4.084089 10,000 189 305 0
2022-08-10 07:23:07 GMT 53.029037 4.085083 10,000 189 305 0
2022-08-10 07:23:04 GMT 53.033474 4.086129 10,000 189 305 0
2022-08-10 07:23:00 GMT 53.038361 4.087385 10,000 189 306 0
2022-08-10 07:22:58 GMT 53.042549 4.088405 10,000 189 306 0
2022-08-10 07:22:54 GMT 53.047348 4.089584 10,000 189 306 0
2022-08-10 07:22:51 GMT 53.052189 4.090838 10,000 189 306 0
2022-08-10 07:22:49 GMT 53.055538 4.091622 10,000 189 306 0
2022-08-10 07:22:46 GMT 53.059937 4.092789 10,000 189 306 0
2022-08-10 07:22:41 GMT 53.065037 4.094055 10,000 189 306 0
2022-08-10 07:22:39 GMT 53.067490 4.094620 10,000 189 306 0
2022-08-10 07:22:36 GMT 53.072662 4.095917 10,000 189 306 0
2022-08-10 07:22:31 GMT 53.079254 4.097595 10,000 189 306 0
2022-08-10 07:22:28 GMT 53.083378 4.098607 10,000 188 306 0
2022-08-10 07:22:25 GMT 53.086807 4.099426 10,000 188 306 -64
2022-08-10 07:22:22 GMT 53.092083 4.100647 10,000 188 306 -64
2022-08-10 07:22:20 GMT 53.096512 4.101667 10,000 188 306 -64
2022-08-10 07:22:17 GMT 53.098755 4.102138 10,000 188 306 -64
2022-08-10 07:22:13 GMT 53.104977 4.103555 10,000 188 306 0
2022-08-10 07:22:10 GMT 53.108795 4.104363 10,000 188 306 0
2022-08-10 07:22:07 GMT 53.113125 4.105332 10,000 188 306 64
2022-08-10 07:22:03 GMT 53.118530 4.106611 10,000 188 307 0
2022-08-10 07:22:00 GMT 53.123363 4.107675 10,025 159 306 0
2022-08-10 07:21:57 GMT 53.130615 4.108887 10,025 179 307 -64
2022-08-10 07:21:51 GMT 53.136074 4.109129 10,025 176 307 -64
2022-08-10 07:21:48 GMT 53.143291 4.108483 10,025 171 307 0
2022-08-10 07:21:45 GMT 53.143291 4.108483 10,025 172 307 0
2022-08-10 07:21:40 GMT 53.150665 4.106768 10,025 168 307 64
2022-08-10 07:21:38 GMT 53.154007 4.105591 10,000 164 306 0
2022-08-10 07:21:35 GMT 53.158127 4.103943 10,000 160 305 0
2022-08-10 07:21:32 GMT 53.162201 4.101824 10,000 157 306 0
2022-08-10 07:21:29 GMT 53.165680 4.099597 10,000 156 305 0
2022-08-10 07:21:26 GMT 53.170383 4.095800 10,000 148 305 64
2022-08-10 07:21:21 GMT 53.175968 4.089903 10,000 141 304 64
2022-08-10 07:21:18 GMT 53.178764 4.086349 10,000 139 304 64
2022-08-10 07:21:15 GMT 53.183231 4.079321 10,000 128 303 64
2022-08-10 07:21:12 GMT 53.184631 4.076791 10,000 110 303 -128
2022-08-10 07:21:09 GMT 53.187653 4.070356 10,000 125 303 128
2022-08-10 07:21:07 GMT 53.188843 4.067453 10,000 118 303 0
2022-08-10 07:21:03 GMT 53.191658 4.059206 10,000 114 304 -64
2022-08-10 07:21:00 GMT 53.194729 4.046442 10,000 107 303 -64
2022-08-10 07:20:58 GMT 53.194729 4.046442 10,000 102 303 0
2022-08-10 07:20:53 GMT 53.196358 4.036022 10,000 101 303 0
2022-08-10 07:20:50 GMT 53.197289 4.028266 10,000 100 303 0
2022-08-10 07:20:48 GMT 53.197952 4.022409 10,000 101 303 0
2022-08-10 07:20:43 GMT 53.199005 4.013463 10,000 101 303 0
2022-08-10 07:20:40 GMT 53.199921 4.005615 10,000 101 303 0
2022-08-10 07:20:38 GMT 53.200504 4.000720 10,000 101 303 0
2022-08-10 07:20:35 GMT 53.201157 3.994864 10,000 101 303 0
2022-08-10 07:20:30 GMT 53.202576 3.982936 10,000 101 303 -64
2022-08-10 07:20:28 GMT 53.202942 3.979876 10,000 101 304 -64
2022-08-10 07:20:26 GMT 53.203949 3.971636 10,000 101 304 -64
2022-08-10 07:20:22 GMT 53.204693 3.965822 10,000 101 304 -64
2022-08-10 07:20:19 GMT 53.205597 3.958609 10,025 102 304 -64
2022-08-10 07:20:17 GMT 53.206284 3.953273 10,025 97 304 0
2022-08-10 07:20:14 GMT 53.207245 3.945740 10,025 101 304 128
2022-08-10 07:20:11 GMT 53.208710 3.933498 10,000 99 305 64
2022-08-10 07:20:08 GMT 53.208710 3.933498 10,000 98 304 0
2022-08-10 07:20:06 GMT 53.209167 3.928868 10,000 95 304 -64
2022-08-10 07:20:03 GMT 53.209675 3.920584 10,000 92 304 0
2022-08-10 07:19:59 GMT 53.209442 3.905640 10,000 83 304 0
2022-08-10 07:19:57 GMT 53.209442 3.905640 10,000 81 304 0
2022-08-10 07:19:49 GMT 53.207161 3.888110 10,000 70 303 0
2022-08-10 07:19:45 GMT 53.205204 3.879628 10,000 64 302 64
2022-08-10 07:19:41 GMT 53.202690 3.871550 10,000 41 303 0
2022-08-10 07:19:37 GMT 53.200287 3.865383 10,000 25 312 -64
2022-08-10 07:19:34 GMT 53.194077 3.853535 10,000 41 303 0
2022-08-10 07:19:31 GMT 53.194077 3.853535 10,000 31 304 -64
2022-08-10 07:19:27 GMT 53.187561 3.844730 10,000 34 303 -128
2022-08-10 07:19:25 GMT 53.182068 3.839329 10,000 31 304 -64
2022-08-10 07:19:21 GMT 53.182068 3.839329 10,000 28 304 0
2022-08-10 07:19:18 GMT 53.178772 3.836504 10,000 25 305 0
2022-08-10 07:19:14 GMT 53.169937 3.829599 10,000 25 314 0
2022-08-10 07:19:11 GMT 53.169937 3.829599 10,000 25 308 64
2022-08-10 07:19:08 GMT 53.164536 3.825361 10,000 25 310 0
2022-08-10 07:19:03 GMT 53.159767 3.821627 10,000 25 312 -64
2022-08-10 07:19:00 GMT 53.155861 3.818557 10,000 25 314 -64
2022-08-10 07:18:57 GMT 53.152134 3.815729 10,000 25 315 -64
2022-08-10 07:18:54 GMT 53.148598 3.812902 10,000 25 317 0
2022-08-10 07:18:51 GMT 53.143478 3.808881 10,000 25 315 0
2022-08-10 07:18:47 GMT 53.138031 3.804644 10,000 25 316 0
2022-08-10 07:18:43 GMT 53.133362 3.801113 10,000 25 315 0
2022-08-10 07:18:38 GMT 53.122295 3.792464 10,000 25 316 0
2022-08-10 07:18:35 GMT 53.122295 3.792464 10,000 25 315 0
2022-08-10 07:18:32 GMT 53.112808 3.785104 10,000 25 315 0
2022-08-10 07:18:28 GMT 53.112808 3.785104 10,000 25 315 0
2022-08-10 07:18:25 GMT 53.109238 3.782279 10,000 25 315 0
2022-08-10 07:18:22 GMT 53.099529 3.774773 10,000 25 315 0
2022-08-10 07:18:18 GMT 53.099529 3.774773 10,000 25 314 0
2022-08-10 07:18:16 GMT 53.098160 3.773647 10,000 25 315 0
2022-08-10 07:18:13 GMT 53.090034 3.767369 10,000 25 314 0
2022-08-10 07:18:10 GMT 53.090034 3.767369 10,000 25 315 0
2022-08-10 07:18:07 GMT 53.083923 3.762512 10,000 25 315 0
2022-08-10 07:18:02 GMT 53.079803 3.759308 10,000 25 316 0
2022-08-10 07:17:59 GMT 53.071178 3.752537 10,000 25 314 0
2022-08-10 07:17:56 GMT 53.066154 3.748614 10,000 25 316 0
2022-08-10 07:17:53 GMT 53.066154 3.748614 10,000 25 316 0
2022-08-10 07:17:50 GMT 53.062847 3.746024 10,000 25 314 0
2022-08-10 07:17:47 GMT 53.059170 3.743120 10,000 25 315 0
2022-08-10 07:17:45 GMT 53.057167 3.741629 10,000 25 315 0
2022-08-10 07:17:40 GMT 53.049728 3.735809 10,000 25 315 0
2022-08-10 07:17:37 GMT 53.043915 3.731308 10,000 25 315 0
2022-08-10 07:17:32 GMT 53.039478 3.727818 10,000 25 314 0
2022-08-10 07:17:29 GMT 53.035858 3.725052 10,000 25 314 0
2022-08-10 07:17:26 GMT 53.031372 3.721542 10,000 25 314 0
2022-08-10 07:17:23 GMT 53.028351 3.719177 10,000 25 314 0
2022-08-10 07:17:20 GMT 53.019150 3.712006 10,000 25 314 0
2022-08-10 07:17:17 GMT 53.019150 3.712006 10,000 25 314 0
2022-08-10 07:17:13 GMT 53.008942 3.704041 10,000 25 314 0
2022-08-10 07:17:09 GMT 53.008942 3.704041 10,000 25 314 0
2022-08-10 07:17:06 GMT 53.005402 3.701294 10,000 25 314 0
2022-08-10 07:17:02 GMT 53.000141 3.697135 10,000 25 314 0
2022-08-10 07:16:59 GMT 52.996490 3.694382 10,000 25 314 0
2022-08-10 07:16:56 GMT 52.992279 3.691101 10,000 25 314 0
2022-08-10 07:16:53 GMT 52.987759 3.687561 10,000 25 314 0
2022-08-10 07:16:49 GMT 52.983292 3.684108 10,000 25 314 0
2022-08-10 07:16:45 GMT 52.978542 3.680420 10,000 25 314 0
2022-08-10 07:16:42 GMT 52.972721 3.675947 10,000 25 313 0
2022-08-10 07:16:38 GMT 52.967369 3.671788 10,000 25 313 0
2022-08-10 07:16:35 GMT 52.964714 3.669747 10,000 25 314 0
2022-08-10 07:16:32 GMT 52.960758 3.666687 10,000 25 313 0
2022-08-10 07:16:29 GMT 52.956940 3.663783 10,000 25 313 0
2022-08-10 07:16:25 GMT 52.949936 3.658295 10,000 25 313 0
2022-08-10 07:16:22 GMT 52.947121 3.656172 10,000 25 314 0
2022-08-10 07:16:19 GMT 52.943672 3.653503 10,000 25 314 0
2022-08-10 07:16:15 GMT 52.938492 3.649521 10,000 25 314 0
2022-08-10 07:16:12 GMT 52.933914 3.645935 10,000 24 314 0
2022-08-10 07:16:09 GMT 52.929794 3.642807 10,000 24 314 0
2022-08-10 07:16:05 GMT 52.923752 3.638153 10,000 24 314 0
2022-08-10 07:16:02 GMT 52.921646 3.636551 10,000 25 314 0
2022-08-10 07:15:59 GMT 52.917160 3.633118 10,000 24 314 0
2022-08-10 07:15:55 GMT 52.912033 3.629150 10,000 25 314 0
2022-08-10 07:15:52 GMT 52.907318 3.625488 10,000 25 314 0
2022-08-10 07:15:49 GMT 52.903885 3.622894 10,000 25 314 0
2022-08-10 07:15:44 GMT 52.897156 3.617706 10,000 25 314 0
2022-08-10 07:15:41 GMT 52.893219 3.614655 10,000 25 313 0
2022-08-10 07:15:38 GMT 52.889488 3.611755 10,000 25 313 0
2022-08-10 07:15:35 GMT 52.885574 3.608780 10,000 25 313 0
2022-08-10 07:15:32 GMT 52.882050 3.606033 10,000 25 313 0
2022-08-10 07:15:28 GMT 52.876358 3.601632 10,000 25 312 0
2022-08-10 07:15:24 GMT 52.871891 3.598179 10,000 25 312 0
2022-08-10 07:15:21 GMT 52.867050 3.594413 10,000 25 312 0
2022-08-10 07:15:17 GMT 52.861977 3.590489 10,000 25 313 0
2022-08-10 07:15:14 GMT 52.857697 3.587189 10,000 25 313 0
2022-08-10 07:15:11 GMT 52.853828 3.584133 10,000 25 313 0
2022-08-10 07:15:08 GMT 52.849918 3.581151 10,000 24 313 0
2022-08-10 07:15:04 GMT 52.843689 3.576355 10,000 24 313 0
2022-08-10 07:15:00 GMT 52.840256 3.573685 10,000 24 314 0
2022-08-10 07:14:57 GMT 52.834694 3.569458 10,000 24 314 0
2022-08-10 07:14:54 GMT 52.831467 3.566971 10,000 24 314 0
2022-08-10 07:14:51 GMT 52.827850 3.564200 10,000 24 314 0
2022-08-10 07:14:48 GMT 52.823616 3.560983 10,000 24 314 0
2022-08-10 07:14:45 GMT 52.819107 3.557510 10,000 24 314 0
2022-08-10 07:14:42 GMT 52.816540 3.555490 10,000 24 314 0
2022-08-10 07:14:38 GMT 52.810490 3.550860 10,000 24 313 0
2022-08-10 07:14:35 GMT 52.806061 3.547516 10,000 24 313 0
2022-08-10 07:14:33 GMT 52.798737 3.541870 10,000 24 313 0
2022-08-10 07:14:30 GMT 52.798737 3.541870 10,000 24 313 0
2022-08-10 07:14:27 GMT 52.796768 3.540344 10,000 24 313 0
2022-08-10 07:14:24 GMT 52.792145 3.536835 10,000 24 313 0
2022-08-10 07:14:21 GMT 52.783081 3.529816 10,000 25 313 0
2022-08-10 07:14:18 GMT 52.783081 3.529816 10,000 25 313 0
2022-08-10 07:14:14 GMT 52.779205 3.526847 10,000 25 313 0
2022-08-10 07:14:11 GMT 52.775116 3.523636 10,000 24 313 0
2022-08-10 07:14:08 GMT 52.770454 3.520020 10,000 25 313 0
2022-08-10 07:14:05 GMT 52.767567 3.517822 10,000 24 313 0
2022-08-10 07:14:02 GMT 52.763889 3.514997 10,000 24 313 0
2022-08-10 07:13:59 GMT 52.759186 3.511429 10,000 24 313 0
2022-08-10 07:13:56 GMT 52.755836 3.508876 10,000 24 313 0
2022-08-10 07:13:53 GMT 52.751862 3.505783 10,000 24 313 0
2022-08-10 07:13:50 GMT 52.747513 3.502502 10,000 24 313 0
2022-08-10 07:13:47 GMT 52.743500 3.499459 10,000 24 312 0
2022-08-10 07:13:44 GMT 52.739502 3.496399 10,000 24 312 0
2022-08-10 07:13:40 GMT 52.734840 3.492789 10,000 24 312 0
2022-08-10 07:13:37 GMT 52.730743 3.489729 10,000 24 312 0
2022-08-10 07:13:33 GMT 52.726044 3.486119 10,000 24 312 0
2022-08-10 07:13:31 GMT 52.721603 3.482742 10,000 24 312 0
2022-08-10 07:13:28 GMT 52.718407 3.480312 10,000 24 313 0
2022-08-10 07:13:24 GMT 52.713520 3.476624 10,000 24 313 0
2022-08-10 07:13:21 GMT 52.710983 3.474655 10,000 24 313 0
2022-08-10 07:13:19 GMT 52.705994 3.470840 10,000 24 313 0
2022-08-10 07:13:16 GMT 52.704025 3.469391 10,000 24 313 0
2022-08-10 07:13:13 GMT 52.698532 3.465118 10,000 24 313 0
2022-08-10 07:13:09 GMT 52.692802 3.460772 10,000 24 313 0
2022-08-10 07:13:06 GMT 52.689175 3.458025 10,000 24 313 0
2022-08-10 07:13:02 GMT 52.683197 3.453445 10,000 24 313 0
2022-08-10 07:12:56 GMT 52.677906 3.449393 10,000 24 313 0
2022-08-10 07:12:53 GMT 52.670197 3.443527 10,000 24 313 0
2022-08-10 07:12:47 GMT 52.664780 3.439348 10,000 24 313 0
2022-08-10 07:12:43 GMT 52.660030 3.435739 10,000 24 314 0
2022-08-10 07:12:40 GMT 52.655090 3.432007 10,000 24 314 0
2022-08-10 07:12:37 GMT 52.651154 3.428955 10,000 24 314 0
2022-08-10 07:12:33 GMT 52.643970 3.423497 10,000 24 314 0
2022-08-10 07:12:29 GMT 52.635544 3.417062 10,000 24 314 0
2022-08-10 07:12:25 GMT 52.635544 3.417062 10,000 24 314 0
2022-08-10 07:12:22 GMT 52.632099 3.414472 10,000 24 314 0
2022-08-10 07:12:19 GMT 52.628143 3.411490 10,000 24 314 0
2022-08-10 07:12:16 GMT 52.624237 3.408585 10,000 24 314 0
2022-08-10 07:12:12 GMT 52.618286 3.404083 10,000 24 314 0
2022-08-10 07:12:09 GMT 52.613201 3.400269 10,000 24 314 0
2022-08-10 07:12:06 GMT 52.611198 3.398699 10,000 24 314 0
2022-08-10 07:12:02 GMT 52.606312 3.395011 10,000 24 314 0
2022-08-10 07:12:00 GMT 52.602215 3.391950 10,000 24 314 0
2022-08-10 07:11:58 GMT 52.599930 3.390198 10,000 24 314 0
2022-08-10 07:11:55 GMT 52.597092 3.388027 10,000 24 314 0
2022-08-10 07:11:52 GMT 52.592377 3.384476 10,000 24 314 0
2022-08-10 07:11:49 GMT 52.588257 3.381348 10,000 24 314 0
2022-08-10 07:11:46 GMT 52.584896 3.378845 10,000 24 314 0
2022-08-10 07:11:43 GMT 52.576702 3.372646 10,000 24 314 0
2022-08-10 07:11:40 GMT 52.576702 3.372646 10,000 24 314 0
2022-08-10 07:11:37 GMT 52.572510 3.369446 10,000 24 314 0
2022-08-10 07:11:34 GMT 52.568527 3.366470 10,000 24 314 0
2022-08-10 07:11:31 GMT 52.564590 3.363495 10,000 24 314 0
2022-08-10 07:11:29 GMT 52.561661 3.361282 10,000 24 314 0
2022-08-10 07:11:26 GMT 52.558228 3.358688 10,000 24 314 0
2022-08-10 07:11:23 GMT 52.553879 3.355408 10,000 24 314 0
2022-08-10 07:11:20 GMT 52.550495 3.352870 10,000 24 314 0
2022-08-10 07:11:18 GMT 52.547188 3.350438 10,000 24 314 0
2022-08-10 07:11:15 GMT 52.544304 3.348240 10,000 24 314 0
2022-08-10 07:11:10 GMT 52.536762 3.342590 10,000 24 314 0
2022-08-10 07:11:07 GMT 52.531448 3.338547 10,000 24 313 0
2022-08-10 07:11:04 GMT 52.529266 3.336862 10,000 24 313 0
2022-08-10 07:11:01 GMT 52.524097 3.333017 10,000 24 313 0
2022-08-10 07:10:58 GMT 52.519821 3.329773 10,000 24 313 0
2022-08-10 07:10:55 GMT 52.515953 3.326896 10,000 24 313 0
2022-08-10 07:10:50 GMT 52.510574 3.322830 10,000 24 313 0
2022-08-10 07:10:48 GMT 52.507759 3.320696 10,000 24 313 0
2022-08-10 07:10:45 GMT 52.503662 3.317636 10,000 24 313 0
2022-08-10 07:10:42 GMT 52.500183 3.314972 10,000 24 313 0
2022-08-10 07:10:39 GMT 52.496029 3.311907 10,000 24 313 0
2022-08-10 07:10:36 GMT 52.491280 3.308297 10,000 24 313 0
2022-08-10 07:10:30 GMT 52.484985 3.303604 10,000 24 313 0
2022-08-10 07:10:28 GMT 52.481644 3.301078 10,000 24 313 0
2022-08-10 07:10:25 GMT 52.477753 3.298111 10,000 24 313 0
2022-08-10 07:10:22 GMT 52.473869 3.295192 10,000 24 313 0
2022-08-10 07:10:18 GMT 52.468002 3.290787 10,000 24 313 0
2022-08-10 07:10:15 GMT 52.464066 3.287811 10,000 24 313 0
2022-08-10 07:10:11 GMT 52.452686 3.279340 10,000 24 313 0
2022-08-10 07:10:06 GMT 52.452686 3.279340 10,000 24 313 0
2022-08-10 07:10:03 GMT 52.448311 3.276045 10,000 24 313 0
2022-08-10 07:10:01 GMT 52.445705 3.274083 10,000 24 313 0
2022-08-10 07:09:55 GMT 52.436920 3.267517 10,000 24 313 0
2022-08-10 07:09:51 GMT 52.431656 3.263550 10,000 24 313 0
2022-08-10 07:09:47 GMT 52.428268 3.260956 10,000 24 313 0
2022-08-10 07:09:44 GMT 52.423683 3.257603 10,000 24 313 0
2022-08-10 07:09:41 GMT 52.418938 3.253993 10,000 24 313 0
2022-08-10 07:09:39 GMT 52.417633 3.253052 10,000 24 313 0
2022-08-10 07:09:35 GMT 52.411816 3.248657 10,000 24 313 0
2022-08-10 07:09:32 GMT 52.408649 3.246225 10,000 24 313 0
2022-08-10 07:09:29 GMT 52.401154 3.240653 10,000 24 313 0
2022-08-10 07:09:27 GMT 52.401154 3.240653 10,000 24 313 0
2022-08-10 07:09:24 GMT 52.397057 3.237514 10,000 24 313 0
2022-08-10 07:09:18 GMT 52.388397 3.231001 10,000 24 313 0
2022-08-10 07:09:15 GMT 52.384003 3.227692 10,000 24 313 0
2022-08-10 07:09:12 GMT 52.380844 3.225327 10,000 24 313 0
2022-08-10 07:09:09 GMT 52.377460 3.222761 10,000 24 314 0
2022-08-10 07:09:07 GMT 52.374664 3.220596 10,000 24 314 0
2022-08-10 07:09:02 GMT 52.368210 3.215790 10,000 24 313 0
2022-08-10 07:08:59 GMT 52.363819 3.212481 10,000 24 313 0
2022-08-10 07:08:57 GMT 52.361725 3.210833 10,000 24 313 0
2022-08-10 07:08:52 GMT 52.355675 3.206281 10,000 24 313 0
2022-08-10 07:08:49 GMT 52.350784 3.202593 10,000 24 313 0
2022-08-10 07:08:47 GMT 52.348892 3.201218 10,000 24 314 0
2022-08-10 07:08:42 GMT 52.337448 3.192596 10,000 24 314 0
2022-08-10 07:08:39 GMT 52.337448 3.192596 10,000 24 314 0
2022-08-10 07:08:36 GMT 52.332489 3.188860 10,000 24 314 0
2022-08-10 07:08:33 GMT 52.330395 3.187291 10,000 24 314 0
2022-08-10 07:08:30 GMT 52.325592 3.183594 10,000 24 314 0
2022-08-10 07:08:27 GMT 52.322296 3.181152 10,000 24 314 0
2022-08-10 07:08:24 GMT 52.317947 3.177872 10,000 24 314 0
2022-08-10 07:08:21 GMT 52.314613 3.175363 10,000 24 314 0
2022-08-10 07:08:18 GMT 52.310715 3.172455 10,000 24 314 0
2022-08-10 07:08:16 GMT 52.301651 3.165588 10,000 24 314 0
2022-08-10 07:08:11 GMT 52.301651 3.165588 10,000 24 314 0
2022-08-10 07:08:08 GMT 52.297028 3.162079 10,000 24 314 0
2022-08-10 07:08:03 GMT 52.290985 3.157501 10,000 24 314 0
2022-08-10 07:08:00 GMT 52.285858 3.153687 10,000 24 314 0
2022-08-10 07:07:57 GMT 52.282494 3.151114 10,000 24 313 0
2022-08-10 07:07:54 GMT 52.274826 3.145294 10,000 24 313 0
2022-08-10 07:07:51 GMT 52.274826 3.145294 10,000 25 313 0
2022-08-10 07:07:48 GMT 52.270752 3.142166 10,000 25 313 0
2022-08-10 07:07:44 GMT 52.265213 3.137970 10,000 25 314 0
2022-08-10 07:07:42 GMT 52.262802 3.136126 10,000 25 314 0
2022-08-10 07:07:40 GMT 52.261002 3.134766 10,000 25 314 0
2022-08-10 07:07:39 GMT 52.259914 3.133929 10,000 24 314 0
2022-08-10 07:07:38 GMT 52.257542 3.132124 10,000 24 314 0
2022-08-10 07:07:37 GMT 52.256012 3.131027 10,000 24 314 0
2022-08-10 07:07:35 GMT 52.254097 3.129534 10,000 24 314 0
2022-08-10 07:07:34 GMT 52.252075 3.128052 10,000 24 314 -64
2022-08-10 07:07:32 GMT 52.250061 3.126526 10,000 24 314 -64
2022-08-10 07:07:31 GMT 52.248093 3.125076 10,000 24 314 -64
2022-08-10 07:07:30 GMT 52.246738 3.124041 10,000 24 314 -64
2022-08-10 07:07:28 GMT 52.244740 3.122550 10,000 24 314 -64
2022-08-10 07:07:27 GMT 52.242874 3.121137 10,000 24 314 -64
2022-08-10 07:07:26 GMT 52.241501 3.120117 10,000 24 314 -64
2022-08-10 07:07:25 GMT 52.240311 3.119278 10,000 24 314 -64
2022-08-10 07:07:24 GMT 52.237793 3.117371 10,025 24 313 -64
2022-08-10 07:07:21 GMT 52.235615 3.115801 10,025 24 313 -64
2022-08-10 07:07:19 GMT 52.231007 3.112427 10,025 24 313 0
2022-08-10 07:07:17 GMT 52.229656 3.111407 10,025 23 312 0
2022-08-10 07:07:16 GMT 52.226864 3.109445 10,025 23 312 64
2022-08-10 07:07:13 GMT 52.224976 3.108063 10,025 23 312 64
2022-08-10 07:07:12 GMT 52.223465 3.106934 10,025 23 312 128
2022-08-10 07:07:10 GMT 52.220078 3.104477 10,000 24 312 128
2022-08-10 07:07:08 GMT 52.216854 3.102147 10,000 24 312 192
2022-08-10 07:07:05 GMT 52.214951 3.100739 10,000 25 312 128
2022-08-10 07:07:04 GMT 52.211918 3.098301 10,000 26 312 64
2022-08-10 07:07:02 GMT 52.210556 3.097229 10,000 27 312 64
2022-08-10 07:07:00 GMT 52.205887 3.092957 10,000 30 312 -128
2022-08-10 07:06:58 GMT 52.205887 3.092957 10,000 32 312 -128
2022-08-10 07:06:57 GMT 52.204514 3.091583 10,000 35 312 -64
2022-08-10 07:06:55 GMT 52.201725 3.088492 10,000 35 312 -64
2022-08-10 07:06:54 GMT 52.200653 3.087237 10,000 40 312 0
2022-08-10 07:06:51 GMT 52.196777 3.082275 10,000 40 312 0
2022-08-10 07:06:49 GMT 52.195084 3.079987 10,000 40 312 0
2022-08-10 07:06:46 GMT 52.191624 3.075230 10,000 40 312 0
2022-08-10 07:06:44 GMT 52.189945 3.072954 10,000 40 312 0
2022-08-10 07:06:42 GMT 52.187431 3.069502 10,000 40 312 0
2022-08-10 07:06:41 GMT 52.184280 3.065186 10,000 40 312 0
2022-08-10 07:06:39 GMT 52.184280 3.065186 10,000 40 312 0
2022-08-10 07:06:36 GMT 52.180916 3.060556 10,000 40 312 0
2022-08-10 07:06:33 GMT 52.177608 3.056004 10,000 40 312 0
2022-08-10 07:06:31 GMT 52.174725 3.052002 10,000 40 312 0
2022-08-10 07:06:27 GMT 52.171326 3.047294 10,000 40 312 0
2022-08-10 07:06:26 GMT 52.169403 3.044662 10,000 40 312 0
2022-08-10 07:06:24 GMT 52.167755 3.042374 10,000 40 312 0
2022-08-10 07:06:20 GMT 52.163273 3.036229 10,000 40 312 0
2022-08-10 07:06:17 GMT 52.159782 3.031363 10,000 40 312 0
2022-08-10 07:06:14 GMT 52.156799 3.027283 10,000 40 312 0
2022-08-10 07:06:12 GMT 52.154114 3.023529 10,000 40 312 0
2022-08-10 07:06:10 GMT 52.152466 3.021240 10,000 40 312 0
2022-08-10 07:06:09 GMT 52.151367 3.019791 10,000 40 312 0
2022-08-10 07:06:07 GMT 52.149261 3.016891 10,000 40 312 -64
2022-08-10 07:06:06 GMT 52.145737 3.012009 10,000 40 312 -64
2022-08-10 07:06:03 GMT 52.142990 3.008270 10,000 40 312 -64
2022-08-10 07:06:01 GMT 52.142044 3.006958 10,000 40 312 -64
2022-08-10 07:05:57 GMT 52.136971 3.000052 10,000 39 312 0
2022-08-10 07:05:56 GMT 52.135853 2.998483 10,025 39 312 0
2022-08-10 07:05:54 GMT 52.133617 2.995501 10,025 39 312 0
2022-08-10 07:05:53 GMT 52.132462 2.993927 10,025 39 312 0
2022-08-10 07:05:52 GMT 52.131454 2.992554 10,025 39 312 0
2022-08-10 07:05:51 GMT 52.130356 2.991104 10,025 39 312 64
2022-08-10 07:05:49 GMT 52.128159 2.988052 10,025 39 312 64
2022-08-10 07:05:48 GMT 52.127151 2.986755 10,000 39 311 64
2022-08-10 07:05:47 GMT 52.124866 2.983651 10,000 40 312 128
2022-08-10 07:05:44 GMT 52.122681 2.980669 10,000 40 311 128
2022-08-10 07:05:42 GMT 52.120583 2.977766 10,000 41 311 64
2022-08-10 07:05:40 GMT 52.119415 2.976151 10,000 41 311 64
2022-08-10 07:05:36 GMT 52.115021 2.969818 10,000 50 311 0
2022-08-10 07:05:34 GMT 52.111908 2.964935 10,000 50 311 0
2022-08-10 07:05:32 GMT 52.110157 2.961914 10,000 50 311 0
2022-08-10 07:05:30 GMT 52.105637 2.953339 10,000 50 311 0
2022-08-10 07:05:27 GMT 52.105637 2.953339 10,000 51 312 0
2022-08-10 07:05:25 GMT 52.101517 2.944946 10,000 51 311 0
2022-08-10 07:05:23 GMT 52.101517 2.944946 10,000 51 311 0
2022-08-10 07:05:20 GMT 52.099216 2.940255 10,000 51 311 0
2022-08-10 07:05:18 GMT 52.096664 2.935028 10,000 51 311 0
2022-08-10 07:05:17 GMT 52.096664 2.935028 10,000 51 311 0
2022-08-10 07:05:15 GMT 52.095062 2.931747 10,000 51 311 0
2022-08-10 07:05:14 GMT 52.094055 2.929764 10,000 51 311 0
2022-08-10 07:05:12 GMT 52.092232 2.925973 10,000 51 311 0
2022-08-10 07:05:11 GMT 52.091255 2.924011 10,000 51 311 0
2022-08-10 07:05:08 GMT 52.088516 2.918396 10,000 51 311 0
2022-08-10 07:05:07 GMT 52.087601 2.916565 10,000 51 311 0
2022-08-10 07:05:05 GMT 52.086323 2.913888 10,000 51 311 0
2022-08-10 07:05:02 GMT 52.082970 2.907139 10,000 51 311 0
2022-08-10 07:04:59 GMT 52.080322 2.901764 10,000 51 311 0
2022-08-10 07:04:57 GMT 52.078129 2.897252 10,000 51 312 0
2022-08-10 07:04:54 GMT 52.076405 2.893799 10,000 51 312 0
2022-08-10 07:04:53 GMT 52.075008 2.890895 10,000 51 312 0
2022-08-10 07:04:51 GMT 52.074078 2.889090 10,000 51 312 0
2022-08-10 07:04:49 GMT 52.070801 2.882385 10,000 51 312 0
2022-08-10 07:04:47 GMT 52.069519 2.879791 10,000 51 312 0
2022-08-10 07:04:44 GMT 52.066910 2.874527 10,000 51 312 0
2022-08-10 07:04:42 GMT 52.065216 2.871017 10,000 51 312 0
2022-08-10 07:04:40 GMT 52.063751 2.868118 10,000 51 312 0
2022-08-10 07:04:36 GMT 52.059647 2.859741 10,000 51 312 0
2022-08-10 07:04:35 GMT 52.057598 2.855582 10,000 51 312 0
2022-08-10 07:04:30 GMT 52.052673 2.845612 10,000 51 310 0
2022-08-10 07:04:28 GMT 52.052673 2.845612 10,000 51 310 0
2022-08-10 07:04:26 GMT 52.051266 2.842791 10,000 51 310 0
2022-08-10 07:04:24 GMT 52.049515 2.839203 10,000 51 310 0
2022-08-10 07:04:21 GMT 52.043819 2.827645 10,000 51 310 0
2022-08-10 07:04:18 GMT 52.043819 2.827645 10,000 51 310 0
2022-08-10 07:04:15 GMT 52.040932 2.821760 10,000 51 310 0
2022-08-10 07:04:12 GMT 52.039124 2.817993 10,000 51 310 0
2022-08-10 07:04:10 GMT 52.036835 2.813363 10,000 51 310 0
2022-08-10 07:04:09 GMT 52.032120 2.803879 10,000 51 310 64
2022-08-10 07:04:06 GMT 52.032120 2.803879 10,000 51 310 64
2022-08-10 07:04:03 GMT 52.029877 2.799301 10,000 51 310 64
2022-08-10 07:04:00 GMT 52.027679 2.794800 10,000 51 310 64
2022-08-10 07:03:57 GMT 52.025013 2.789429 10,000 51 310 64
2022-08-10 07:03:55 GMT 52.023193 2.785721 10,000 51 310 64
2022-08-10 07:03:53 GMT 52.018799 2.776794 10,000 51 310 64
2022-08-10 07:03:51 GMT 52.018799 2.776794 10,000 51 310 64
2022-08-10 07:03:48 GMT 52.016876 2.772980 10,000 51 310 64
2022-08-10 07:03:46 GMT 52.015549 2.770233 10,000 51 312 64
2022-08-10 07:03:44 GMT 52.013233 2.765651 10,000 51 313 64
2022-08-10 07:03:42 GMT 52.011475 2.762070 10,000 51 313 64
2022-08-10 07:03:40 GMT 52.009277 2.757568 10,000 51 314 64
2022-08-10 07:03:39 GMT 52.008347 2.755685 9,975 51 318 0
2022-08-10 07:03:36 GMT 52.005737 2.750349 9,975 51 318 0
2022-08-10 07:03:34 GMT 52.003410 2.745640 9,975 51 323 0
2022-08-10 07:03:30 GMT 52.000107 2.738813 9,975 51 326 0
2022-08-10 07:03:28 GMT 51.998150 2.734811 9,975 51 326 -64
2022-08-10 07:03:27 GMT 51.997055 2.732620 9,975 51 331 -64
2022-08-10 07:03:24 GMT 51.994194 2.726728 10,000 51 331 -64
2022-08-10 07:03:21 GMT 51.991543 2.721235 10,000 52 332 -64
2022-08-10 07:03:19 GMT 51.990143 2.718253 10,000 52 337 -64
2022-08-10 07:03:16 GMT 51.986748 2.711112 10,000 52 337 -64
2022-08-10 07:03:13 GMT 51.980988 2.699127 10,000 52 342 0
2022-08-10 07:03:10 GMT 51.980988 2.699127 10,000 51 343 0
2022-08-10 07:03:06 GMT 51.977097 2.691345 10,000 48 346 -64
2022-08-10 07:03:02 GMT 51.974350 2.686310 10,000 46 346 0
2022-08-10 07:03:01 GMT 51.972641 2.683332 10,000 45 346 0
2022-08-10 07:03:00 GMT 51.971619 2.681684 10,000 41 346 0
2022-08-10 07:02:58 GMT 51.969196 2.677917 10,000 41 346 0
2022-08-10 07:02:57 GMT 51.968124 2.676348 10,000 32 347 0
2022-08-10 07:02:54 GMT 51.963425 2.670070 10,000 32 347 0
2022-08-10 07:02:49 GMT 51.956360 2.662201 10,000 30 346 0
2022-08-10 07:02:44 GMT 51.950157 2.656494 10,000 19 346 0
2022-08-10 07:02:41 GMT 51.947113 2.654037 10,000 19 346 0
2022-08-10 07:02:40 GMT 51.945465 2.652817 10,000 19 346 0
2022-08-10 07:02:39 GMT 51.944103 2.651864 10,000 19 346 0
2022-08-10 07:02:37 GMT 51.940659 2.649745 10,000 19 346 0
2022-08-10 07:02:35 GMT 51.936951 2.647629 10,000 12 346 0
2022-08-10 07:02:32 GMT 51.932232 2.645429 10,000 12 346 0
2022-08-10 07:02:30 GMT 51.928974 2.644174 10,000 11 346 0
2022-08-10 07:02:29 GMT 51.927521 2.643661 10,000 10 346 0
2022-08-10 07:02:27 GMT 51.924362 2.642746 10,000 8 346 0
2022-08-10 07:02:26 GMT 51.922829 2.642369 10,000 8 346 0
2022-08-10 07:02:24 GMT 51.919804 2.641820 10,000 359 346 0
2022-08-10 07:02:22 GMT 51.915195 2.641192 10,000 359 346 0
2022-08-10 07:02:19 GMT 51.911911 2.640991 10,000 359 346 0
2022-08-10 07:02:17 GMT 51.904488 2.641349 10,000 357 346 0
2022-08-10 07:02:14 GMT 51.904488 2.641349 10,000 356 346 0
2022-08-10 07:02:12 GMT 51.900486 2.641976 10,000 353 347 0
2022-08-10 07:02:11 GMT 51.893688 2.643703 10,000 350 347 0
2022-08-10 07:02:08 GMT 51.893688 2.643703 10,000 349 347 0
2022-08-10 07:02:06 GMT 51.890488 2.644884 10,000 344 348 0
2022-08-10 07:02:05 GMT 51.888748 2.645552 10,000 344 348 0
2022-08-10 07:02:04 GMT 51.885727 2.646942 10,000 343 348 0
2022-08-10 07:02:02 GMT 51.884052 2.647781 10,000 342 349 0
2022-08-10 07:02:01 GMT 51.882431 2.648670 10,000 341 349 0
2022-08-10 07:01:58 GMT 51.878357 2.651120 10,000 338 350 0
2022-08-10 07:01:56 GMT 51.874786 2.653644 10,000 336 351 0
2022-08-10 07:01:54 GMT 51.873184 2.654831 10,000 333 353 0
2022-08-10 07:01:51 GMT 51.869015 2.658234 10,000 331 355 -64
2022-08-10 07:01:50 GMT 51.864532 2.662403 10,000 328 358 -128
2022-08-10 07:01:48 GMT 51.864532 2.662403 10,000 328 358 -128
2022-08-10 07:01:47 GMT 51.863197 2.663727 10,025 328 358 -128
2022-08-10 07:01:45 GMT 51.860367 2.666708 10,025 326 361 -128
2022-08-10 07:01:44 GMT 51.859192 2.667999 10,025 324 363 -128
2022-08-10 07:01:43 GMT 51.856384 2.671237 10,025 323 364 -128
2022-08-10 07:01:40 GMT 51.853653 2.674637 10,025 321 367 -128
2022-08-10 07:01:38 GMT 51.850983 2.678214 10,025 319 369 -192
2022-08-10 07:01:37 GMT 51.849743 2.679977 10,025 318 370 -192
2022-08-10 07:01:35 GMT 51.846039 2.685489 10,050 314 376 -256
2022-08-10 07:01:33 GMT 51.844666 2.687568 10,050 314 376 -256
2022-08-10 07:01:31 GMT 51.842331 2.691353 10,050 314 376 -256
2022-08-10 07:01:30 GMT 51.841084 2.693558 10,050 313 377 -256
2022-08-10 07:01:27 GMT 51.837067 2.700781 10,075 311 380 -320
2022-08-10 07:01:24 GMT 51.833775 2.707367 10,125 307 385 -384
2022-08-10 07:01:20 GMT 51.829445 2.716827 10,200 305 388 -448
2022-08-10 07:01:17 GMT 51.827316 2.722011 10,200 302 391 -576
2022-08-10 07:01:15 GMT 51.824799 2.728395 10,200 302 392 -576
2022-08-10 07:01:11 GMT 51.817669 2.750168 10,250 297 397 -896
2022-08-10 07:01:07 GMT 51.817669 2.750168 10,325 294 399 -1216
2022-08-10 07:01:04 GMT 51.816132 2.755890 10,325 294 399 -1216
2022-08-10 07:01:01 GMT 51.813446 2.766922 10,450 289 402 -1792
2022-08-10 07:00:59 GMT 51.810608 2.780877 10,600 286 402 -2048
2022-08-10 07:00:56 GMT 51.810608 2.780877 10,600 286 402 -2048
2022-08-10 07:00:54 GMT 51.809555 2.786964 10,675 285 403 -2176
2022-08-10 07:00:51 GMT 51.808079 2.797318 10,900 275 407 -3456
2022-08-10 07:00:48 GMT 51.807175 2.804854 11,250 275 407 -3456
2022-08-10 07:00:45 GMT 51.806442 2.812574 11,250 275 407 -3456
2022-08-10 07:00:41 GMT 51.805756 2.822818 11,300 275 407 -3456
2022-08-10 07:00:38 GMT 51.805286 2.831726 11,975 275 409 -3392
2022-08-10 07:00:36 GMT 51.804913 2.839279 11,975 275 409 -3392
2022-08-10 07:00:33 GMT 51.804428 2.850729 11,975 276 411 -3328
2022-08-10 07:00:29 GMT 51.803936 2.860641 11,975 276 411 -3328
2022-08-10 07:00:27 GMT 51.803192 2.875746 12,375 276 411 -3328
2022-08-10 07:00:24 GMT 51.802780 2.882501 12,375 276 413 -3200
2022-08-10 07:00:22 GMT 51.802780 2.882501 12,375 276 413 -3200
2022-08-10 07:00:20 GMT 51.802551 2.886732 12,450 276 413 -3200
2022-08-10 07:00:19 GMT 51.802277 2.891334 12,675 276 415 0
2022-08-10 07:00:16 GMT 51.801746 2.900085 12,675 276 415 -3136
2022-08-10 07:00:14 GMT 51.801376 2.905960 12,775 276 415 -3136
2022-08-10 07:00:13 GMT 51.801132 2.910486 12,975 274 417 -3072
2022-08-10 07:00:11 GMT 51.800858 2.917019 12,975 274 417 -3072
2022-08-10 07:00:09 GMT 51.800724 2.921524 13,175 274 418 -3072
2022-08-10 07:00:07 GMT 51.800583 2.929786 13,175 270 422 -3136
2022-08-10 07:00:05 GMT 51.800537 2.932904 13,400 270 422 -3136
2022-08-10 07:00:03 GMT 51.800583 2.942703 13,400 269 423 -3200
2022-08-10 07:00:00 GMT 51.801048 2.957993 13,650 266 425 -3264
2022-08-10 06:59:58 GMT 51.801048 2.957993 13,650 266 425 -3264
2022-08-10 06:59:56 GMT 51.801407 2.964453 13,775 265 426 -3264
2022-08-10 06:59:54 GMT 51.801842 2.970963 13,900 264 427 -3264
2022-08-10 06:59:52 GMT 51.802505 2.979299 14,000 263 428 -3264
2022-08-10 06:59:51 GMT 51.802505 2.979299 14,050 262 428 -3264
2022-08-10 06:59:50 GMT 51.802826 2.983085 14,100 262 428 -3264
2022-08-10 06:59:49 GMT 51.803097 2.985840 14,150 261 429 -3264
2022-08-10 06:59:48 GMT 51.804214 2.996826 14,300 261 431 -3328
2022-08-10 06:59:46 GMT 51.804214 2.996826 14,350 261 431 -3328
2022-08-10 06:59:45 GMT 51.804543 3.000031 14,400 260 431 -3328
2022-08-10 06:59:43 GMT 51.805241 3.006058 14,500 260 432 -3328
2022-08-10 06:59:39 GMT 51.806763 3.019236 14,750 260 433 -3264
2022-08-10 06:59:38 GMT 51.807102 3.022232 14,800 260 434 -3264
2022-08-10 06:59:36 GMT 51.807472 3.025436 14,925 260 434 -3200
2022-08-10 06:59:34 GMT 51.808182 3.031633 14,925 259 436 -3200
2022-08-10 06:59:32 GMT 51.808777 3.036384 15,200 259 436 -3200
2022-08-10 06:59:30 GMT 51.810059 3.046256 15,200 257 437 -3328
2022-08-10 06:59:28 GMT 51.810745 3.051007 15,300 256 438 -3392
2022-08-10 06:59:25 GMT 51.812595 3.062210 15,475 248 441 -3392
2022-08-10 06:59:24 GMT 51.813248 3.065338 15,550 248 441 -3392
2022-08-10 06:59:22 GMT 51.816010 3.077211 15,950 247 442 -3392
2022-08-10 06:59:20 GMT 51.816010 3.077211 15,950 243 444 -3392
2022-08-10 06:59:17 GMT 51.819111 3.087463 15,950 243 444 -3392
2022-08-10 06:59:15 GMT 51.821182 3.093394 16,325 241 445 -3328
2022-08-10 06:59:14 GMT 51.821182 3.093394 16,325 236 449 -3456
2022-08-10 06:59:12 GMT 51.823425 3.099406 16,325 236 449 -3456
2022-08-10 06:59:10 GMT 51.826447 3.106904 16,325 236 449 -3456
2022-08-10 06:59:08 GMT 51.828934 3.112869 16,425 236 449 -3456
2022-08-10 06:59:07 GMT 51.830006 3.115311 16,625 236 449 -3520
2022-08-10 06:59:05 GMT 51.832077 3.120191 16,625 236 451 -3520
2022-08-10 06:59:03 GMT 51.834595 3.125982 16,750 236 451 -3584
2022-08-10 06:59:01 GMT 51.836895 3.131332 16,850 236 451 -3584
2022-08-10 06:59:00 GMT 51.837639 3.132935 16,975 236 452 -3584
2022-08-10 06:58:58 GMT 51.840618 3.139877 17,050 235 453 -3584
2022-08-10 06:58:55 GMT 51.844254 3.148325 17,225 235 454 -3584
2022-08-10 06:58:53 GMT 51.846542 3.153596 17,325 235 454 -3584
2022-08-10 06:58:52 GMT 51.847694 3.156204 17,375 235 455 -3520
2022-08-10 06:58:50 GMT 51.851933 3.165970 17,575 235 456 -3264
2022-08-10 06:58:47 GMT 51.855095 3.173141 17,700 235 458 -2496
2022-08-10 06:58:44 GMT 51.856842 3.177202 17,750 235 458 -2496
2022-08-10 06:58:43 GMT 51.858810 3.181730 17,775 235 460 -2112
2022-08-10 06:58:42 GMT 51.859985 3.184357 17,875 235 460 -1792
2022-08-10 06:58:40 GMT 51.862453 3.190002 17,900 235 461 -1408
2022-08-10 06:58:39 GMT 51.865082 3.195982 17,950 235 463 -960
2022-08-10 06:58:36 GMT 51.867619 3.201752 17,975 235 463 -896
2022-08-10 06:58:35 GMT 51.871109 3.209686 18,000 235 464 -704
2022-08-10 06:58:33 GMT 51.871109 3.209686 18,025 235 464 -704
2022-08-10 06:58:30 GMT 51.874786 3.218029 18,050 235 465 -320
2022-08-10 06:58:28 GMT 51.877396 3.223968 18,050 235 465 -192
2022-08-10 06:58:27 GMT 51.878696 3.226929 18,050 235 465 -128
2022-08-10 06:58:25 GMT 51.880142 3.230203 18,050 235 465 -128
2022-08-10 06:58:24 GMT 51.881306 3.232880 18,050 235 465 -64
2022-08-10 06:58:21 GMT 51.886139 3.243788 18,050 235 466 128
2022-08-10 06:58:19 GMT 51.887917 3.247910 18,050 235 466 128
2022-08-10 06:58:16 GMT 51.893642 3.260978 18,050 235 466 192
2022-08-10 06:58:12 GMT 51.896763 3.268040 18,025 235 466 128
2022-08-10 06:58:10 GMT 51.899227 3.273769 18,025 235 465 0
2022-08-10 06:58:07 GMT 51.903259 3.283005 18,025 235 465 0
2022-08-10 06:58:06 GMT 51.906910 3.291425 18,025 235 465 0
2022-08-10 06:58:04 GMT 51.906910 3.291425 18,025 235 465 0
2022-08-10 06:58:03 GMT 51.910633 3.299901 18,025 235 465 64
2022-08-10 06:58:01 GMT 51.910633 3.299901 18,025 235 465 64
2022-08-10 06:58:00 GMT 51.911911 3.302917 18,025 235 465 64
2022-08-10 06:57:59 GMT 51.913239 3.305865 18,025 235 465 64
2022-08-10 06:57:56 GMT 51.916489 3.313446 18,025 235 465 0
2022-08-10 06:57:54 GMT 51.918961 3.319092 18,025 235 465 64
2022-08-10 06:57:51 GMT 51.923080 3.328476 18,025 235 465 64
2022-08-10 06:57:49 GMT 51.926285 3.335876 18,025 235 466 64
2022-08-10 06:57:45 GMT 51.930092 3.344552 18,025 235 466 64
2022-08-10 06:57:43 GMT 51.932739 3.350677 18,025 235 465 64
2022-08-10 06:57:41 GMT 51.935398 3.356794 18,025 235 465 64
2022-08-10 06:57:38 GMT 51.943909 3.376312 18,025 235 465 64
2022-08-10 06:57:35 GMT 51.943909 3.376312 18,025 235 467 64
2022-08-10 06:57:32 GMT 51.946480 3.382141 18,025 235 467 64
2022-08-10 06:57:29 GMT 51.953842 3.399124 18,025 235 468 64
2022-08-10 06:57:26 GMT 51.953842 3.399124 18,025 235 468 64
2022-08-10 06:57:23 GMT 51.957733 3.408051 18,025 235 468 64
2022-08-10 06:57:20 GMT 51.962082 3.418045 18,025 235 470 -128
2022-08-10 06:57:17 GMT 51.964462 3.423538 18,025 235 471 -384
2022-08-10 06:57:14 GMT 51.968262 3.432159 18,025 235 471 -384
2022-08-10 06:57:11 GMT 51.972656 3.442230 18,075 235 472 -704
2022-08-10 06:57:08 GMT 51.981537 3.462677 18,125 235 470 -832
2022-08-10 06:57:05 GMT 51.981537 3.462677 18,175 235 468 -512
2022-08-10 06:57:02 GMT 51.984146 3.468704 18,200 235 461 0
2022-08-10 06:56:59 GMT 51.987583 3.476545 18,050 235 464 1408
2022-08-10 06:56:56 GMT 51.992191 3.487139 18,150 235 466 768
2022-08-10 06:56:53 GMT 51.998524 3.501657 18,000 235 462 1408
2022-08-10 06:56:50 GMT 51.998524 3.501657 18,075 235 464 1408
2022-08-10 06:56:48 GMT 52.001678 3.508911 17,975 235 460 1472
2022-08-10 06:56:45 GMT 52.008682 3.525009 17,900 235 461 1408
2022-08-10 06:56:42 GMT 52.008682 3.525009 17,850 235 461 1408
2022-08-10 06:56:39 GMT 52.012482 3.533707 17,775 235 460 1472
2022-08-10 06:56:36 GMT 52.016281 3.542480 17,675 235 459 1600
2022-08-10 06:56:33 GMT 52.020542 3.552115 17,625 235 458 1664
2022-08-10 06:56:30 GMT 52.023804 3.559649 17,475 235 458 1728
2022-08-10 06:56:27 GMT 52.028225 3.569772 17,450 235 456 1856
2022-08-10 06:56:24 GMT 52.030411 3.574794 17,375 235 456 1856
2022-08-10 06:56:22 GMT 52.032944 3.580475 17,025 235 455 1664
2022-08-10 06:56:19 GMT 52.037861 3.591823 17,150 235 455 1728
2022-08-10 06:56:16 GMT 52.041046 3.599167 17,075 235 455 1600
2022-08-10 06:56:13 GMT 52.044479 3.607025 16,925 235 454 1536
2022-08-10 06:56:10 GMT 52.048553 3.616409 16,850 235 452 1536
2022-08-10 06:56:07 GMT 52.050980 3.621979 16,850 235 452 1536
2022-08-10 06:56:04 GMT 52.055328 3.631973 16,800 235 452 1600
2022-08-10 06:56:02 GMT 52.057114 3.636093 16,675 235 445 1920
2022-08-10 06:55:59 GMT 52.061138 3.645342 16,700 235 450 1856
2022-08-10 06:55:56 GMT 52.065170 3.654633 16,500 235 449 1920
2022-08-10 06:55:53 GMT 52.068741 3.662872 16,425 235 449 1920
2022-08-10 06:55:50 GMT 52.071938 3.670140 16,350 235 449 1856
2022-08-10 06:55:47 GMT 52.075008 3.677281 16,225 235 447 1856
2022-08-10 06:55:45 GMT 52.078903 3.686218 16,150 235 447 1856
2022-08-10 06:55:42 GMT 52.082611 3.694763 16,100 235 447 1856
2022-08-10 06:55:39 GMT 52.084412 3.698940 16,050 235 447 1920
2022-08-10 06:55:37 GMT 52.087463 3.705978 15,925 235 440 1664
2022-08-10 06:55:34 GMT 52.090000 3.711888 15,675 235 445 2240
2022-08-10 06:55:31 GMT 52.094330 3.721848 15,225 235 445 1792
2022-08-10 06:55:28 GMT 52.098907 3.732452 15,600 235 445 2432
2022-08-10 06:55:25 GMT 52.102520 3.740766 15,525 235 445 2496
2022-08-10 06:55:22 GMT 52.105499 3.747593 15,325 235 445 2432
2022-08-10 06:55:19 GMT 52.112503 3.763885 15,225 235 445 2496
2022-08-10 06:55:16 GMT 52.112503 3.763885 14,275 235 445 2176
2022-08-10 06:55:13 GMT 52.115555 3.770822 15,075 235 445 2176
2022-08-10 06:55:10 GMT 52.120167 3.781494 14,925 235 445 1792
2022-08-10 06:55:07 GMT 52.123169 3.788452 14,625 235 443 1664
2022-08-10 06:55:04 GMT 52.126694 3.796616 14,750 235 442 1600
2022-08-10 06:55:01 GMT 52.130585 3.805618 14,700 235 441 1600
2022-08-10 06:54:57 GMT 52.134888 3.815613 14,475 235 438 1792
2022-08-10 06:54:54 GMT 52.137955 3.822632 14,475 235 438 1792
2022-08-10 06:54:51 GMT 52.141800 3.831558 14,350 235 437 1728
2022-08-10 06:54:48 GMT 52.144821 3.838577 14,350 235 437 1728
2022-08-10 06:54:45 GMT 52.148438 3.846893 14,225 235 435 1728
2022-08-10 06:54:42 GMT 52.152008 3.855209 14,175 235 435 1728
2022-08-10 06:54:39 GMT 52.155579 3.863525 14,025 236 434 2112
2022-08-10 06:54:36 GMT 52.159973 3.873672 13,950 236 433 2624
2022-08-10 06:54:33 GMT 52.162666 3.879979 13,825 236 433 2624
2022-08-10 06:54:30 GMT 52.166298 3.888454 13,425 236 434 2880
2022-08-10 06:54:27 GMT 52.169128 3.894958 13,625 236 433 2944
2022-08-10 06:54:25 GMT 52.172104 3.901978 13,225 235 432 1024
2022-08-10 06:54:22 GMT 52.175079 3.908920 13,250 236 435 2496
2022-08-10 06:54:19 GMT 52.178028 3.915763 13,125 236 434 2176
2022-08-10 06:54:16 GMT 52.183102 3.927534 13,125 235 433 1408
2022-08-10 06:54:13 GMT 52.188904 3.941040 13,000 235 432 1152
2022-08-10 06:54:10 GMT 52.188904 3.941040 12,925 236 430 960
2022-08-10 06:54:07 GMT 52.192368 3.949114 12,875 235 428 1088
2022-08-10 06:54:05 GMT 52.195068 3.955470 12,775 236 425 1856
2022-08-10 06:54:02 GMT 52.198372 3.963082 12,800 236 428 1344
2022-08-10 06:53:59 GMT 52.201214 3.969674 12,675 236 426 1664
2022-08-10 06:53:56 GMT 52.204742 3.977966 12,625 236 425 1984
2022-08-10 06:53:53 GMT 52.207497 3.984427 12,375 236 405 2432
2022-08-10 06:53:50 GMT 52.212296 3.995514 12,375 236 424 2112
2022-08-10 06:53:47 GMT 52.215088 4.002075 12,325 235 423 2112
2022-08-10 06:53:45 GMT 52.217831 4.008440 12,175 236 422 2176
2022-08-10 06:53:42 GMT 52.220810 4.015350 12,150 236 422 2240
2022-08-10 06:53:40 GMT 52.223145 4.020844 12,050 236 421 2432
2022-08-10 06:53:35 GMT 52.227814 4.031754 11,925 236 421 2560
2022-08-10 06:53:32 GMT 52.232437 4.042664 11,675 236 421 2560
2022-08-10 06:53:29 GMT 52.234589 4.047756 11,500 236 421 2496
2022-08-10 06:53:26 GMT 52.237656 4.054947 11,375 236 419 1728
2022-08-10 06:53:23 GMT 52.244972 4.072239 11,325 236 419 1600
2022-08-10 06:53:20 GMT 52.244972 4.072239 11,300 236 417 1216
2022-08-10 06:53:17 GMT 52.248089 4.079538 11,250 236 415 896
2022-08-10 06:53:14 GMT 52.252075 4.088821 11,175 236 411 1088
2022-08-10 06:53:11 GMT 52.254189 4.093820 11,175 236 411 1088
2022-08-10 06:53:09 GMT 52.257385 4.101334 11,100 236 408 1792
2022-08-10 06:53:06 GMT 52.260147 4.107788 11,000 236 405 2432
2022-08-10 06:53:04 GMT 52.262329 4.112930 10,900 236 405 2624
2022-08-10 06:53:01 GMT 52.264988 4.119088 10,800 236 405 2432
2022-08-10 06:52:59 GMT 52.267223 4.124346 10,725 236 405 2560
2022-08-10 06:52:56 GMT 52.270760 4.132664 10,650 236 405 2624
2022-08-10 06:52:54 GMT 52.272446 4.136505 10,400 236 405 2432
2022-08-10 06:52:51 GMT 52.276062 4.145050 10,375 236 405 2560
2022-08-10 06:52:49 GMT 52.278908 4.151655 10,300 236 404 2368
2022-08-10 06:52:46 GMT 52.284260 4.164211 10,150 236 403 2240
2022-08-10 06:52:43 GMT 52.284260 4.164211 10,100 236 403 2240
2022-08-10 06:52:40 GMT 52.287094 4.170837 10,000 236 403 2240
2022-08-10 06:52:38 GMT 52.290253 4.178314 9,900 236 403 2240
2022-08-10 06:52:35 GMT 52.292908 4.184570 9,800 236 402 2240
2022-08-10 06:52:33 GMT 52.295013 4.189529 9,725 236 401 2176
2022-08-10 06:52:30 GMT 52.299297 4.199602 9,550 236 399 1920
2022-08-10 06:52:27 GMT 52.301811 4.205566 9,525 236 398 1856
2022-08-10 06:52:24 GMT 52.308189 4.220633 9,375 236 396 1792
2022-08-10 06:52:21 GMT 52.310715 4.226685 9,300 236 393 2048
2022-08-10 06:52:18 GMT 52.310715 4.226685 9,225 236 393 2048
2022-08-10 06:52:15 GMT 52.313828 4.234009 9,125 236 391 2368
2022-08-10 06:52:13 GMT 52.315544 4.238055 7,825 236 391 2688
2022-08-10 06:52:10 GMT 52.321106 4.251328 8,925 236 391 2560
2022-08-10 06:52:08 GMT 52.321106 4.251328 8,775 236 391 2752
2022-08-10 06:52:05 GMT 52.324158 4.258458 8,725 236 391 2816
2022-08-10 06:52:03 GMT 52.326206 4.263323 8,500 236 391 2944
2022-08-10 06:52:00 GMT 52.329391 4.271011 8,200 236 391 2816
2022-08-10 06:51:57 GMT 52.332954 4.279410 8,325 236 391 2816
2022-08-10 06:51:54 GMT 52.335377 4.285217 8,200 236 391 2752
2022-08-10 06:51:51 GMT 52.338356 4.292280 7,850 236 389 2304
2022-08-10 06:51:48 GMT 52.342125 4.301304 7,900 236 388 2304
2022-08-10 06:51:45 GMT 52.345058 4.308289 7,825 236 388 2304
2022-08-10 06:51:42 GMT 52.350861 4.322205 7,700 236 386 2944
2022-08-10 06:51:39 GMT 52.350861 4.322205 7,525 236 386 2816
2022-08-10 06:51:36 GMT 52.353470 4.328461 7,350 236 386 2944
2022-08-10 06:51:33 GMT 52.357132 4.337082 7,250 236 386 3072
2022-08-10 06:51:30 GMT 52.359722 4.343209 7,175 236 386 3072
2022-08-10 06:51:27 GMT 52.362488 4.349823 6,975 236 386 2560
2022-08-10 06:51:24 GMT 52.365646 4.357300 6,850 236 386 2432
2022-08-10 06:51:22 GMT 52.367683 4.362200 6,775 236 368 2688
2022-08-10 06:51:19 GMT 52.370911 4.369736 6,675 236 383 2240
2022-08-10 06:51:17 GMT 52.373642 4.376247 6,575 236 383 2048
2022-08-10 06:51:14 GMT 52.375626 4.380875 6,450 236 378 1600
2022-08-10 06:51:12 GMT 52.378052 4.386597 6,425 236 380 1664
2022-08-10 06:51:09 GMT 52.380997 4.393511 6,350 236 378 1600
2022-08-10 06:51:07 GMT 52.383041 4.398346 6,275 236 375 1600
2022-08-10 06:51:04 GMT 52.386070 4.405518 6,225 236 375 1728
2022-08-10 06:51:02 GMT 52.388306 4.410854 6,175 236 373 1856
2022-08-10 06:50:59 GMT 52.390915 4.417038 6,075 236 371 2112
2022-08-10 06:50:57 GMT 52.395859 4.428787 5,975 236 369 2432
2022-08-10 06:50:54 GMT 52.395859 4.428787 5,875 236 369 2496
2022-08-10 06:50:52 GMT 52.397755 4.433297 5,450 236 361 1472
2022-08-10 06:50:49 GMT 52.402969 4.445696 5,450 236 368 2752
2022-08-10 06:50:47 GMT 52.402969 4.445696 5,450 236 367 2688
2022-08-10 06:50:44 GMT 52.405701 4.452133 5,425 236 367 2624
2022-08-10 06:50:42 GMT 52.407257 4.455795 5,275 236 365 2240
2022-08-10 06:50:39 GMT 52.410278 4.463039 5,225 236 365 1984
2022-08-10 06:50:37 GMT 52.412838 4.469160 5,125 236 363 1600
2022-08-10 06:50:34 GMT 52.415359 4.475098 5,075 236 361 1536
2022-08-10 06:50:32 GMT 52.416935 4.478891 4,925 236 355 1280
2022-08-10 06:50:29 GMT 52.419800 4.485703 4,975 236 356 1344
2022-08-10 06:50:27 GMT 52.421173 4.488983 4,925 236 352 1216
2022-08-10 06:50:24 GMT 52.424515 4.496994 4,875 236 351 1280
2022-08-10 06:50:21 GMT 52.426849 4.502590 4,725 236 334 1344
2022-08-10 06:50:18 GMT 52.429413 4.508820 4,750 236 346 1280
2022-08-10 06:50:16 GMT 52.431553 4.513890 4,675 236 339 1280
2022-08-10 06:50:12 GMT 52.434391 4.520717 4,525 322 257 0
2022-08-10 06:50:08 GMT 52.438065 4.529495 4,500 236 334 1344
2022-08-10 06:50:06 GMT 52.440170 4.534454 3,825 236 328 1472
2022-08-10 06:50:03 GMT 52.442959 4.540963 4,375 236 327 1536
2022-08-10 06:50:00 GMT 52.445160 4.546204 4,275 236 326 1600
2022-08-10 06:49:57 GMT 52.448776 4.554853 4,200 238 320 1472
2022-08-10 06:49:54 GMT 52.450104 4.557953 4,125 238 320 1472
2022-08-10 06:49:51 GMT 52.453526 4.566624 4,075 241 317 1280
2022-08-10 06:49:48 GMT 52.455276 4.571457 4,050 241 317 1280
2022-08-10 06:49:46 GMT 52.457344 4.577689 3,950 254 296 448
2022-08-10 06:49:42 GMT 52.459160 4.583888 3,900 255 295 512
2022-08-10 06:49:39 GMT 52.460999 4.590607 3,900 247 308 896
2022-08-10 06:49:36 GMT 52.462509 4.596786 3,825 255 295 512
2022-08-10 06:49:33 GMT 52.465210 4.610291 3,825 254 296 448
2022-08-10 06:49:31 GMT 52.465210 4.610291 3,775 263 287 512
2022-08-10 06:49:28 GMT 52.465862 4.615592 3,775 263 287 512
2022-08-10 06:49:26 GMT 52.466354 4.621353 3,750 271 280 512
2022-08-10 06:49:23 GMT 52.466583 4.625854 2,350 319 260 1280
2022-08-10 06:49:20 GMT 52.466583 4.631348 3,675 276 274 960
2022-08-10 06:49:17 GMT 52.466400 4.636993 3,675 276 274 832
2022-08-10 06:49:15 GMT 52.465988 4.642334 3,550 281 269 1792
2022-08-10 06:49:12 GMT 52.465488 4.647217 3,550 283 267 2240
2022-08-10 06:49:10 GMT 52.465023 4.650670 3,475 285 268 2496
2022-08-10 06:49:08 GMT 52.463860 4.657654 3,300 291 267 3200
2022-08-10 06:49:04 GMT 52.462788 4.662598 2,875 295 268 3264
2022-08-10 06:49:01 GMT 52.459396 4.674454 2,925 298 268 3200
2022-08-10 06:48:58 GMT 52.459396 4.674454 2,750 307 269 2752
2022-08-10 06:48:55 GMT 52.456741 4.681091 2,475 312 266 1472
2022-08-10 06:48:51 GMT 52.454037 4.686846 2,450 314 265 1472
2022-08-10 06:48:48 GMT 52.451981 4.690781 2,375 316 262 1408
2022-08-10 06:48:45 GMT 52.448730 4.696579 2,275 316 262 1408
2022-08-10 06:48:41 GMT 52.446121 4.700699 2,275 321 259 1216
2022-08-10 06:48:38 GMT 52.443375 4.704361 1,800 334 248 1856
2022-08-10 06:48:35 GMT 52.440582 4.707485 1,950 332 250 1664
2022-08-10 06:48:32 GMT 52.436859 4.710859 2,025 336 248 1984
2022-08-10 06:48:31 GMT 52.435730 4.711685 2,000 338 247 2048
2022-08-10 06:48:29 GMT 52.433533 4.713211 1,950 339 246 2112
2022-08-10 06:48:28 GMT 52.432892 4.713593 1,900 343 245 2304
2022-08-10 06:48:27 GMT 52.431553 4.714312 1,850 344 244 2368
2022-08-10 06:48:26 GMT 52.429550 4.715175 1,775 348 243 2368
2022-08-10 06:48:24 GMT 52.428177 4.715652 1,725 350 244 2304
2022-08-10 06:48:23 GMT 52.427132 4.716038 1,700 351 243 2176
2022-08-10 06:48:22 GMT 52.425888 4.716339 1,650 353 243 2048
2022-08-10 06:48:21 GMT 52.423645 4.716797 1,575 356 241 1664
2022-08-10 06:48:18 GMT 52.422501 4.716949 1,575 358 241 1600
2022-08-10 06:48:17 GMT 52.420303 4.717102 1,525 0 239 1024
2022-08-10 06:48:15 GMT 52.419125 4.717058 1,500 1 238 896
2022-08-10 06:48:14 GMT 52.417969 4.717026 1,475 2 236 704
2022-08-10 06:48:13 GMT 52.415867 4.716902 1,475 3 233 576
2022-08-10 06:48:11 GMT 52.414886 4.716823 1,475 3 231 576
2022-08-10 06:48:10 GMT 52.413723 4.716666 1,450 3 230 576
2022-08-10 06:48:08 GMT 52.411331 4.716415 1,450 3 226 640
2022-08-10 06:48:07 GMT 52.410233 4.716352 1,425 3 225 640
2022-08-10 06:48:06 GMT 52.409626 4.716274 1,400 3 223 704
2022-08-10 06:48:04 GMT 52.407532 4.716034 1,400 3 221 832
2022-08-10 06:48:03 GMT 52.406479 4.715958 1,375 3 218 960
2022-08-10 06:48:02 GMT 52.405472 4.715881 1,350 3 218 960
2022-08-10 06:48:01 GMT 52.403343 4.715646 1,325 3 216 960
2022-08-10 06:47:59 GMT 52.402412 4.715567 1,275 3 214 1024
2022-08-10 06:47:57 GMT 52.398315 4.715097 1,250 3 209 896
2022-08-10 06:47:54 GMT 52.397369 4.714966 1,225 3 209 896
2022-08-10 06:47:53 GMT 52.395893 4.714861 1,200 3 207 768
2022-08-10 06:47:51 GMT 52.394173 4.714626 1,175 3 203 896
2022-08-10 06:47:49 GMT 52.391796 4.714390 1,150 3 201 832
2022-08-10 06:47:47 GMT 52.390865 4.714312 1,125 3 201 832
2022-08-10 06:47:46 GMT 52.388493 4.713998 1,100 3 197 768
2022-08-10 06:47:44 GMT 52.387466 4.713920 1,075 3 196 832
2022-08-10 06:47:42 GMT 52.386063 4.713821 1,050 3 195 960
2022-08-10 06:47:41 GMT 52.384769 4.713684 1,025 3 193 1088
2022-08-10 06:47:39 GMT 52.383591 4.713516 1,025 3 192 1216
2022-08-10 06:47:38 GMT 52.381836 4.713370 950 3 190 1664
2022-08-10 06:47:37 GMT 52.380981 4.713287 925 3 190 1664
2022-08-10 06:47:36 GMT 52.380112 4.713211 900 3 190 1792
2022-08-10 06:47:34 GMT 52.378784 4.713135 850 2 190 1984
2022-08-10 06:47:33 GMT 52.377823 4.713058 800 2 190 1984
2022-08-10 06:47:31 GMT 52.376060 4.712899 750 2 190 1984
2022-08-10 06:47:30 GMT 52.375179 4.712899 725 1 190 1984
2022-08-10 06:47:29 GMT 52.374344 4.712830 675 1 190 2048
2022-08-10 06:47:27 GMT 52.372330 4.712753 600 1 188 2176
2022-08-10 06:47:26 GMT 52.371407 4.712664 550 1 188 2240
2022-08-10 06:47:25 GMT 52.370708 4.712664 525 1 187 2368
2022-08-10 06:47:24 GMT 52.368942 4.712524 450 2 186 2496
2022-08-10 06:47:22 GMT 52.368008 4.712507 400 2 186 2496
2022-08-10 06:47:21 GMT 52.367111 4.712448 350 2 185 2560
2022-08-10 06:47:20 GMT 52.365509 4.712296 275 2 185 2752
2022-08-10 06:47:18 GMT 52.364613 4.712272 225 2 185 2816
2022-08-10 06:47:17 GMT 52.363682 4.712193 175 3 185 2752
2022-08-10 06:47:15 GMT 52.361862 4.712036 75 3 186 2752
2022-08-10 06:47:14 GMT 52.361027 4.711958 50 3 186 2752
2022-08-10 06:47:13 GMT 52.359146 4.711761 -50 3 186 2752
2022-08-10 06:47:11 GMT 52.357773 4.711609 -125 3 187 2752
2022-08-10 06:47:09 GMT 52.357773 4.711609 -200 3 187 2624
2022-08-10 06:47:08 GMT 52.355942 4.711380 -225 3 188 2432
2022-08-10 06:47:06 GMT 52.355022 4.711330 -275 3 188 2112
2022-08-10 06:47:05 GMT 52.354183 4.711251 -350 3 188 1792
2022-08-10 06:47:04 GMT 52.352371 4.711075 -375 3 187 1216
2022-08-10 06:47:02 GMT 52.351410 4.710922 -400 3 185 640
2022-08-10 06:47:00 GMT 52.349621 4.710781 -400 3 180 192
2022-08-10 06:46:58 GMT 52.347946 4.710624 -400 3 174 128
2022-08-10 06:46:57 GMT 52.347107 4.710541 -375 3 171 64
2022-08-10 06:46:56 GMT 52.345642 4.710388 -375 3 162 0
2022-08-10 06:46:54 GMT 52.344864 4.710312 -375 3 162 0
2022-08-10 06:46:53 GMT 52.344082 4.710231 -375 3 158 0
2022-08-10 06:46:52 GMT 52.341980 4.710083 -375 3 148 0
2022-08-10 06:46:50 GMT 52.341980 4.710083 -375 3 148 0
2022-08-10 06:46:48 GMT 52.340637 4.709917 -375 3 144 0
2022-08-10 06:46:47 GMT 52.339985 4.709839 -375 3 133 0
2022-08-10 06:46:45 GMT 52.339100 4.709760 -375 3 129 0
2022-08-10 06:46:44 GMT 52.338215 4.709682 -375 3 126 64
2022-08-10 06:46:43 GMT 52.337608 4.709682 -375 3 122 0
2022-08-10 06:46:41 GMT 52.336445 4.709525 -375 3 110 0
2022-08-10 06:46:39 GMT 52.335388 4.709473 -375 3 106 0
2022-08-10 06:46:38 GMT 52.334473 4.709396 -375 2 98 0
2022-08-10 06:46:34 GMT 52.332699 4.709225 0 2 78
2022-08-10 06:46:32 GMT 52.332344 4.709187 0 2 74
2022-08-10 06:46:31 GMT 52.331966 4.709148 0 2 68
2022-08-10 06:46:30 GMT 52.331646 4.709110 0 2 64
2022-08-10 06:46:28 GMT 52.330799 4.709034 0 2 55
2022-08-10 06:46:27 GMT 52.330799 4.709034 0 2 50
2022-08-10 06:46:26 GMT 52.330547 4.709015 0 2 45
2022-08-10 06:46:24 GMT 52.330147 4.708977 0 2 36
2022-08-10 06:46:23 GMT 52.329964 4.708956 0 2 31
2022-08-10 06:46:22 GMT 52.329815 4.708958 0 2 27
2022-08-10 06:46:20 GMT 52.329578 4.708936 0 2 17
2022-08-10 06:46:17 GMT 52.329395 4.708917 0 2 0
2022-08-10 06:46:15 GMT 52.329334 4.708917 0 2 2
2022-08-10 06:46:14 GMT 52.329323 4.708920 0 2 0
2022-08-10 06:46:13 GMT 52.329323 4.708920 0 2 0
2022-08-10 06:46:09 GMT 52.329323 4.708920 0 2 0
2022-08-10 06:46:07 GMT 52.329323 4.708917 0 2 0
2022-08-10 06:46:04 GMT 52.329323 4.708920 0 2 0
2022-08-10 06:46:02 GMT 52.329323 4.708917 0 2 0
2022-08-10 06:46:00 GMT 52.329323 4.708920 0 2 0
2022-08-10 06:45:58 GMT 52.329323 4.708917 0 2 0
2022-08-10 06:45:57 GMT 52.329323 4.708920 0 2 0
2022-08-10 06:45:55 GMT 52.329323 4.708917 0 2 0
2022-08-10 06:45:54 GMT 52.329323 4.708920 0 2 0
2022-08-10 06:45:53 GMT 52.329323 4.708920 0 2 0
2022-08-10 06:45:48 GMT 52.329323 4.708920 0 2 0
2022-08-10 06:45:46 GMT 52.329323 4.708917 0 2 0
2022-08-10 06:45:45 GMT 52.329311 4.708920 0 2 4
2022-08-10 06:45:43 GMT 52.329277 4.708917 0 2 6
2022-08-10 06:45:41 GMT 52.329220 4.708897 0 0 8
2022-08-10 06:45:40 GMT 52.329151 4.708881 0 351 7
2022-08-10 06:45:38 GMT 52.329117 4.708862 0 348 7
2022-08-10 06:45:36 GMT 52.329056 4.708858 0 340 8
2022-08-10 06:45:34 GMT 52.328979 4.708862 0 326 8
2022-08-10 06:45:33 GMT 52.328911 4.708881 0 315 8
2022-08-10 06:45:31 GMT 52.328876 4.708900 0 306 8
2022-08-10 06:45:30 GMT 52.328842 4.708920 0 300 9
2022-08-10 06:45:29 GMT 52.328785 4.708996 0 289 9
2022-08-10 06:45:27 GMT 52.328766 4.709054 0 284 9
2022-08-10 06:45:25 GMT 52.328739 4.709167 0 278 9
2022-08-10 06:45:23 GMT 52.328709 4.709388 0 278 9
2022-08-10 06:45:21 GMT 52.328709 4.709446 0 275 9
2022-08-10 06:45:19 GMT 52.328697 4.709584 0 275 9
2022-08-10 06:45:17 GMT 52.328686 4.709741 0 275 9
2022-08-10 06:45:16 GMT 52.328671 4.709800 0 272 9
2022-08-10 06:45:14 GMT 52.328671 4.709911 0 272 8
2022-08-10 06:45:13 GMT 52.328659 4.709988 0 270 8
2022-08-10 06:45:12 GMT 52.328663 4.710094 0 270 7
2022-08-10 06:45:10 GMT 52.328659 4.710140 0 267 6
2022-08-10 06:45:08 GMT 52.328659 4.710274 0 267 5
2022-08-10 06:45:06 GMT 52.328659 4.710293 0 267 4
2022-08-10 06:45:05 GMT 52.328659 4.710331 0 264 4
2022-08-10 06:45:04 GMT 52.328663 4.710388 0 264 3
2022-08-10 06:45:02 GMT 52.328648 4.710408 0 261 3
2022-08-10 06:44:59 GMT 52.328648 4.710447 0 261 0
2022-08-10 06:44:54 GMT 52.328648 4.710484 0 258 0
2022-08-10 06:44:49 GMT 52.328648 4.710486 0 258 0
2022-08-10 06:44:45 GMT 52.328648 4.710486 0 258 0
2022-08-10 06:44:43 GMT 52.328648 4.710484 0 258 0
2022-08-10 06:44:41 GMT 52.328648 4.710486 0 258 0
2022-08-10 06:44:38 GMT 52.328648 4.710484 0 258 0
2022-08-10 06:44:35 GMT 52.328648 4.710486 0 258 0
2022-08-10 06:44:33 GMT 52.328648 4.710484 0 258 0
2022-08-10 06:44:32 GMT 52.328648 4.710486 0 258 0
2022-08-10 06:44:31 GMT 52.328648 4.710484 0 258 0
2022-08-10 06:44:27 GMT 52.328648 4.710484 0 258 0
2022-08-10 06:44:25 GMT 52.328648 4.710486 0 258 0
2022-08-10 06:44:23 GMT 52.328648 4.710522 0 255 3
2022-08-10 06:44:21 GMT 52.328648 4.710560 0 255 4
2022-08-10 06:44:17 GMT 52.328663 4.710682 0 247 6
2022-08-10 06:44:16 GMT 52.328659 4.710712 0 247 7
2022-08-10 06:44:13 GMT 52.328682 4.710865 0 239 8
2022-08-10 06:44:12 GMT 52.328693 4.710922 0 236 8
2022-08-10 06:44:10 GMT 52.328728 4.711018 0 233 9
2022-08-10 06:44:08 GMT 52.328777 4.711153 0 227 10
2022-08-10 06:44:07 GMT 52.328800 4.711193 0 225 10
2022-08-10 06:44:06 GMT 52.328857 4.711310 0 222 11
2022-08-10 06:44:04 GMT 52.328880 4.711369 0 222 11
2022-08-10 06:44:03 GMT 52.328922 4.711418 0 222 12
2022-08-10 06:44:02 GMT 52.328999 4.711526 0 222 12
2022-08-10 06:44:00 GMT 52.329056 4.711624 0 222 13
2022-08-10 06:43:58 GMT 52.329128 4.711723 0 222 13
2022-08-10 06:43:57 GMT 52.329174 4.711781 0 222 13
2022-08-10 06:43:56 GMT 52.329220 4.711840 0 222 14
2022-08-10 06:43:53 GMT 52.329311 4.711977 0 222 14
2022-08-10 06:43:52 GMT 52.329418 4.712134 0 222 15
2022-08-10 06:43:50 GMT 52.329475 4.712213 0 222 15
2022-08-10 06:43:48 GMT 52.329674 4.712487 0 222 16
2022-08-10 06:43:45 GMT 52.329723 4.712582 0 222 16
2022-08-10 06:43:44 GMT 52.329861 4.712762 0 222 16
2022-08-10 06:43:42 GMT 52.329884 4.712801 0 219 16
2022-08-10 06:43:40 GMT 52.330021 4.712997 0 219 16
2022-08-10 06:43:38 GMT 52.330116 4.713115 0 222 16
2022-08-10 06:43:37 GMT 52.330231 4.713292 0 222 16
2022-08-10 06:43:35 GMT 52.330292 4.713390 0 222 16
2022-08-10 06:43:34 GMT 52.330387 4.713516 0 222 16
2022-08-10 06:43:31 GMT 52.330467 4.713631 0 222 15
2022-08-10 06:43:30 GMT 52.330547 4.713745 0 222 15
2022-08-10 06:43:29 GMT 52.330605 4.713840 0 222 15
2022-08-10 06:43:28 GMT 52.330650 4.713917 0 222 15
2022-08-10 06:43:26 GMT 52.330753 4.714050 0 222 15
2022-08-10 06:43:25 GMT 52.330814 4.714135 0 222 15
2022-08-10 06:43:24 GMT 52.330902 4.714260 0 222 14
2022-08-10 06:43:21 GMT 52.331093 4.714547 0 225 13
2022-08-10 06:43:19 GMT 52.331093 4.714547 0 225 13
2022-08-10 06:43:18 GMT 52.331200 4.714699 0 230 13
2022-08-10 06:43:15 GMT 52.331257 4.714813 0 236 13
2022-08-10 06:43:14 GMT 52.331291 4.714881 0 239 13
2022-08-10 06:43:13 GMT 52.331371 4.715057 0 247 13
2022-08-10 06:43:09 GMT 52.331451 4.715271 0 255 13
2022-08-10 06:43:08 GMT 52.331474 4.715366 0 261 13
2022-08-10 06:43:07 GMT 52.331497 4.715481 0 264 13
2022-08-10 06:43:06 GMT 52.331501 4.715567 0 270 13
2022-08-10 06:43:05 GMT 52.331524 4.715783 0 278 13
2022-08-10 06:43:01 GMT 52.331512 4.716078 0 289 14
2022-08-10 06:42:59 GMT 52.331478 4.716274 0 295 14
2022-08-10 06:42:57 GMT 52.331429 4.716492 0 300 14
2022-08-10 06:42:55 GMT 52.331371 4.716666 0 306 14
2022-08-10 06:42:51 GMT 52.331234 4.716980 0 312 14
2022-08-10 06:42:49 GMT 52.331131 4.717159 0 312 14
2022-08-10 06:42:47 GMT 52.330994 4.717407 0 312 15
2022-08-10 06:42:44 GMT 52.330978 4.717451 0 312 17
2022-08-10 06:42:42 GMT 52.330856 4.717674 0 312 17
2022-08-10 06:42:37 GMT 52.330605 4.718151 0 312 20
2022-08-10 06:42:36 GMT 52.330547 4.718275 0 312 21
2022-08-10 06:42:35 GMT 52.330467 4.718399 0 312 21
2022-08-10 06:42:34 GMT 52.330338 4.718648 0 312 22
2022-08-10 06:42:31 GMT 52.330196 4.718903 0 312 23
2022-08-10 06:42:29 GMT 52.330067 4.719162 0 312 24
2022-08-10 06:42:28 GMT 52.329987 4.719296 0 312 24
2022-08-10 06:42:27 GMT 52.329906 4.719448 0 312 24
2022-08-10 06:42:25 GMT 52.329742 4.719746 0 312 25
2022-08-10 06:42:24 GMT 52.329666 4.719887 0 312 26
2022-08-10 06:42:23 GMT 52.329586 4.720039 0 312 26
2022-08-10 06:42:19 GMT 52.329277 4.720612 0 312 27
2022-08-10 06:42:17 GMT 52.329113 4.720904 0 312 27
2022-08-10 06:42:14 GMT 52.328903 4.721296 0 312 27
2022-08-10 06:42:05 GMT 52.328136 4.722709 0 312 26
2022-08-10 06:42:03 GMT 52.327972 4.723003 0 312 26
2022-08-10 06:42:00 GMT 52.327740 4.723434 0 312 26
2022-08-10 06:41:57 GMT 52.327518 4.723846 0 312 26
2022-08-10 06:41:54 GMT 52.327251 4.724350 0 312 26
2022-08-10 06:41:53 GMT 52.327183 4.724483 0 312 25
2022-08-10 06:41:52 GMT 52.327114 4.724617 0 312 25
2022-08-10 06:41:51 GMT 52.327030 4.724769 0 312 25
2022-08-10 06:41:49 GMT 52.326862 4.725075 0 315 26
2022-08-10 06:41:47 GMT 52.326782 4.725208 0 315 26
2022-08-10 06:41:45 GMT 52.326611 4.725494 0 317 26
2022-08-10 06:41:44 GMT 52.326553 4.725571 0 317 26
2022-08-10 06:41:43 GMT 52.326427 4.725742 0 317 26
2022-08-10 06:41:42 GMT 52.326355 4.725848 0 317 26
2022-08-10 06:41:39 GMT 52.326077 4.726260 0 320 26
2022-08-10 06:41:37 GMT 52.325890 4.726534 0 320 26
2022-08-10 06:41:36 GMT 52.325798 4.726639 0 320 26
2022-08-10 06:41:35 GMT 52.325706 4.726772 0 320 26
2022-08-10 06:41:34 GMT 52.325523 4.727039 0 320 26
2022-08-10 06:41:32 GMT 52.325432 4.727173 0 317 26
2022-08-10 06:41:31 GMT 52.325333 4.727299 0 317 26
2022-08-10 06:41:29 GMT 52.325157 4.727554 0 320 26
2022-08-10 06:41:28 GMT 52.325066 4.727688 0 320 26
2022-08-10 06:41:27 GMT 52.324982 4.727809 0 320 26
2022-08-10 06:41:25 GMT 52.324783 4.728084 0 320 26
2022-08-10 06:41:24 GMT 52.324688 4.728222 0 320 26
2022-08-10 06:41:23 GMT 52.324539 4.728418 0 320 26
2022-08-10 06:41:20 GMT 52.324356 4.728680 0 320 25
2022-08-10 06:41:17 GMT 52.324146 4.728986 0 320 25
2022-08-10 06:41:15 GMT 52.323933 4.729271 0 320 25
2022-08-10 06:41:13 GMT 52.323750 4.729538 0 320 25
2022-08-10 06:41:12 GMT 52.323654 4.729673 0 320 25
2022-08-10 06:41:10 GMT 52.323475 4.729919 0 320 25
2022-08-10 06:41:09 GMT 52.323387 4.730046 0 320 25
2022-08-10 06:41:08 GMT 52.323318 4.730144 0 320 25
2022-08-10 06:41:06 GMT 52.323154 4.730379 0 317 24
2022-08-10 06:41:03 GMT 52.322819 4.730850 0 320 24
2022-08-10 06:40:59 GMT 52.322609 4.731144 0 320 23
2022-08-10 06:40:57 GMT 52.322308 4.731576 0 320 22
2022-08-10 06:40:55 GMT 52.322224 4.731694 0 320 22
2022-08-10 06:40:54 GMT 52.322147 4.731789 0 320 22
2022-08-10 06:40:51 GMT 52.321976 4.732037 0 320 21
2022-08-10 06:40:50 GMT 52.321850 4.732208 0 320 21
2022-08-10 06:40:48 GMT 52.321701 4.732418 0 320 21
2022-08-10 06:40:47 GMT 52.321632 4.732518 0 320 21
2022-08-10 06:40:46 GMT 52.321491 4.732714 0 320 20
2022-08-10 06:40:44 GMT 52.321426 4.732800 0 320 20
2022-08-10 06:40:43 GMT 52.321365 4.732891 0 317 20
2022-08-10 06:40:42 GMT 52.321198 4.733124 0 317 20
2022-08-10 06:40:39 GMT 52.321060 4.733322 0 312 20
2022-08-10 06:40:35 GMT 52.320873 4.733636 0 303 20
2022-08-10 06:40:33 GMT 52.320770 4.733891 0 295 20
2022-08-10 06:40:32 GMT 52.320724 4.734048 0 289 20
2022-08-10 06:40:31 GMT 52.320690 4.734166 0 286 20
2022-08-10 06:40:29 GMT 52.320637 4.734383 0 281 20
2022-08-10 06:40:28 GMT 52.320595 4.734774 0 275 20
2022-08-10 06:40:25 GMT 52.320580 4.735012 0 272 20
2022-08-10 06:40:24 GMT 52.320568 4.735165 0 272 20
2022-08-10 06:40:22 GMT 52.320568 4.735394 0 272 20
2022-08-10 06:40:19 GMT 52.320549 4.735853 0 272 21
2022-08-10 06:40:18 GMT 52.320549 4.736029 0 272 21
2022-08-10 06:40:17 GMT 52.320534 4.736443 0 272 21
2022-08-10 06:40:15 GMT 52.320522 4.736595 0 272 21
2022-08-10 06:40:13 GMT 52.320515 4.736893 0 272 21
2022-08-10 06:40:11 GMT 52.320503 4.737226 0 272 21
2022-08-10 06:40:10 GMT 52.320503 4.737364 0 272 21
2022-08-10 06:40:08 GMT 52.320492 4.737658 0 272 21
2022-08-10 06:40:07 GMT 52.320488 4.737835 0 272 21
2022-08-10 06:40:06 GMT 52.320477 4.737988 0 272 21
2022-08-10 06:40:04 GMT 52.320465 4.738274 0 272 21
2022-08-10 06:40:02 GMT 52.320454 4.738808 0 272 20
2022-08-10 06:40:00 GMT 52.320442 4.738941 0 272 20
2022-08-10 06:39:58 GMT 52.320431 4.739456 0 272 19
2022-08-10 06:39:56 GMT 52.320431 4.739456 0 272 19
2022-08-10 06:39:54 GMT 52.320408 4.739934 0 272 18
2022-08-10 06:39:53 GMT 52.320408 4.739934 0 272 18
2022-08-10 06:39:51 GMT 52.320396 4.740228 0 272 18
2022-08-10 06:39:50 GMT 52.320396 4.740287 0 272 18
2022-08-10 06:39:49 GMT 52.320396 4.740467 0 272 18
2022-08-10 06:39:48 GMT 52.320385 4.740601 0 275 17
2022-08-10 06:39:47 GMT 52.320385 4.740849 0 281 17
2022-08-10 06:39:45 GMT 52.320374 4.740982 0 286 17
2022-08-10 06:39:44 GMT 52.320374 4.741096 0 292 17
2022-08-10 06:39:41 GMT 52.320282 4.741464 0 315 17
2022-08-10 06:39:38 GMT 52.320129 4.741738 0 337 18
2022-08-10 06:39:36 GMT 52.320049 4.741817 0 345 18
2022-08-10 06:39:35 GMT 52.319973 4.741859 0 351 18
2022-08-10 06:39:33 GMT 52.319828 4.741915 0 0 20
2022-08-10 06:39:32 GMT 52.319710 4.741915 0 2 21
2022-08-10 06:39:31 GMT 52.319534 4.741915 0 5 22
2022-08-10 06:39:29 GMT 52.319420 4.741895 0 5 23
2022-08-10 06:39:28 GMT 52.319328 4.741876 0 5 24
2022-08-10 06:39:26 GMT 52.319080 4.741856 0 2 25
2022-08-10 06:39:25 GMT 52.318966 4.741840 0 2 26
2022-08-10 06:39:24 GMT 52.318745 4.741817 0 2 26
2022-08-10 06:39:22 GMT 52.318611 4.741802 0 2 26
2022-08-10 06:39:21 GMT 52.318489 4.741797 0 2 25
2022-08-10 06:39:20 GMT 52.318165 4.741758 0 2 24
2022-08-10 06:39:18 GMT 52.318165 4.741758 0 2 24
2022-08-10 06:39:17 GMT 52.317924 4.741745 0 2 23
2022-08-10 06:39:15 GMT 52.317810 4.741726 0 2 23
2022-08-10 06:39:14 GMT 52.317684 4.741707 0 2 23
2022-08-10 06:39:13 GMT 52.317474 4.741699 0 2 22
2022-08-10 06:39:11 GMT 52.317383 4.741680 0 2 21
2022-08-10 06:39:10 GMT 52.317291 4.741680 0 2 21
2022-08-10 06:39:09 GMT 52.317184 4.741660 0 2 21
2022-08-10 06:39:07 GMT 52.317013 4.741640 0 2 20
2022-08-10 06:39:04 GMT 52.316673 4.741621 0 2 19
2022-08-10 06:39:00 GMT 52.316418 4.741601 0 2 18
2022-08-10 06:38:59 GMT 52.316315 4.741582 0 2 18
2022-08-10 06:38:57 GMT 52.316151 4.741573 0 2 18
2022-08-10 06:38:55 GMT 52.316032 4.741562 0 2 18
2022-08-10 06:38:53 GMT 52.315510 4.741523 0 354 17
2022-08-10 06:38:49 GMT 52.315510 4.741523 0 354 17
2022-08-10 06:38:47 GMT 52.315369 4.741523 0 345 17
2022-08-10 06:38:45 GMT 52.315212 4.741573 0 329 17
2022-08-10 06:38:43 GMT 52.315109 4.741631 0 320 17
2022-08-10 06:38:42 GMT 52.314938 4.741837 0 303 18
2022-08-10 06:38:40 GMT 52.314892 4.741936 0 298 17
2022-08-10 06:38:39 GMT 52.314846 4.742033 0 292 18
2022-08-10 06:38:37 GMT 52.314777 4.742260 0 281 18
2022-08-10 06:38:35 GMT 52.314743 4.742565 0 270 19
2022-08-10 06:38:34 GMT 52.314739 4.742817 0 267 20
2022-08-10 06:38:30 GMT 52.314743 4.743061 0 267 21
2022-08-10 06:38:29 GMT 52.314754 4.743309 0 267 23
2022-08-10 06:38:26 GMT 52.314766 4.743729 0 267 24
2022-08-10 06:38:22 GMT 52.314823 4.744995 0 267 27
2022-08-10 06:38:15 GMT 52.314869 4.746310 0 267 29
2022-08-10 06:38:12 GMT 52.314880 4.746741 0 267 29
2022-08-10 06:38:11 GMT 52.314892 4.747105 0 267 30
2022-08-10 06:38:08 GMT 52.314903 4.747585 0 267 31
2022-08-10 06:38:05 GMT 52.314926 4.748193 0 267 30
2022-08-10 06:38:04 GMT 52.314938 4.748516 0 267 30
2022-08-10 06:38:02 GMT 52.314949 4.748936 0 267 30
2022-08-10 06:38:00 GMT 52.314964 4.749370 0 267 29
2022-08-10 06:37:59 GMT 52.314976 4.749586 0 267 29
2022-08-10 06:37:58 GMT 52.314983 4.749794 0 267 28
2022-08-10 06:37:57 GMT 52.314999 4.750233 0 267 28
2022-08-10 06:37:55 GMT 52.315010 4.750429 0 267 27
2022-08-10 06:37:54 GMT 52.315010 4.750626 0 267 27
2022-08-10 06:37:52 GMT 52.315033 4.751312 0 267 26
2022-08-10 06:37:50 GMT 52.315033 4.751528 0 267 26
2022-08-10 06:37:49 GMT 52.315033 4.751626 0 267 26
2022-08-10 06:37:47 GMT 52.315052 4.752026 0 267 26
2022-08-10 06:37:46 GMT 52.315056 4.752195 0 267 25
2022-08-10 06:37:45 GMT 52.315075 4.752655 0 267 25
2022-08-10 06:37:43 GMT 52.315086 4.752865 0 267 25
2022-08-10 06:37:41 GMT 52.315098 4.753208 0 267 25
2022-08-10 06:37:40 GMT 52.315109 4.753399 0 267 25
2022-08-10 06:37:39 GMT 52.315121 4.753914 0 267 24
2022-08-10 06:37:37 GMT 52.315121 4.753914 0 267 24
2022-08-10 06:37:36 GMT 52.315132 4.754105 0 267 24
2022-08-10 06:37:34 GMT 52.315136 4.754451 0 267 24
2022-08-10 06:37:32 GMT 52.315155 4.754829 0 267 24
2022-08-10 06:37:30 GMT 52.315159 4.755197 0 267 24
2022-08-10 06:37:29 GMT 52.315166 4.755383 0 267 24
2022-08-10 06:37:25 GMT 52.315201 4.756050 0 267 24
2022-08-10 06:37:22 GMT 52.315235 4.757137 0 267 23
2022-08-10 06:37:18 GMT 52.315235 4.757137 0 267 23
2022-08-10 06:37:17 GMT 52.315247 4.757481 0 267 22
2022-08-10 06:37:14 GMT 52.315254 4.757806 0 267 22
2022-08-10 06:37:11 GMT 52.315269 4.758282 0 267 21
2022-08-10 06:37:10 GMT 52.315281 4.758511 0 267 21
2022-08-10 06:37:08 GMT 52.315289 4.758767 0 267 20
2022-08-10 06:37:07 GMT 52.315292 4.758930 0 267 20
2022-08-10 06:37:05 GMT 52.315300 4.759238 0 267 19
2022-08-10 06:37:01 GMT 52.315323 4.759807 0 267 18
2022-08-10 06:36:59 GMT 52.315338 4.760075 0 267 18
2022-08-10 06:36:51 GMT 52.315372 4.761066 0 267 15
2022-08-10 06:36:43 GMT 52.315392 4.761926 0 272 14
2022-08-10 06:36:39 GMT 52.315380 4.762279 0 281 13
2022-08-10 06:36:38 GMT 52.315380 4.762416 0 286 13
2022-08-10 06:36:36 GMT 52.315357 4.762593 0 292 13
2022-08-10 06:36:33 GMT 52.315281 4.762897 0 303 13
2022-08-10 06:36:31 GMT 52.315224 4.763069 0 306 12
2022-08-10 06:36:30 GMT 52.315201 4.763145 0 309 12
2022-08-10 06:36:27 GMT 52.315052 4.763470 0 326 11
2022-08-10 06:36:24 GMT 52.315018 4.763546 0 329 11
2022-08-10 06:36:20 GMT 52.314903 4.763680 0 343 10
2022-08-10 06:36:19 GMT 52.314857 4.763718 0 345 10
2022-08-10 06:36:16 GMT 52.314739 4.763770 0 348 9
2022-08-10 06:36:14 GMT 52.314606 4.763813 0 348 9
2022-08-10 06:36:12 GMT 52.314568 4.763809 0 345 9
2022-08-10 06:36:11 GMT 52.314526 4.763832 0 345 8
2022-08-10 06:36:08 GMT 52.314411 4.763870 0 345 7
2022-08-10 06:36:06 GMT 52.314354 4.763889 0 343 7
2022-08-10 06:35:58 GMT 52.314182 4.763985 0 343 4
2022-08-10 06:35:16 GMT 52.314102 4.764025 0 343 0
2022-08-10 06:35:05 GMT 52.314102 4.764023 0 343 0
2022-08-10 06:33:25 GMT 52.314102 4.764023 0 343 0
2022-08-10 06:33:10 GMT 52.314102 4.764025 0 343 0
2022-08-10 06:32:55 GMT 52.314102 4.764023 0 343 0
2022-08-10 06:32:34 GMT 52.314091 4.764023 0 343 1
2022-08-10 06:32:27 GMT 52.313999 4.764080 0 340 3
2022-08-10 06:32:18 GMT 52.313915 4.764123 0 340 3
2022-08-10 06:32:15 GMT 52.313873 4.764137 0 340 3
2022-08-10 06:32:13 GMT 52.313847 4.764162 0 340 3
2022-08-10 06:32:11 GMT 52.313824 4.764162 0 337 3
2022-08-10 06:32:10 GMT 52.313808 4.764182 0 337 3
2022-08-10 06:32:08 GMT 52.313774 4.764182 0 337 3
2022-08-10 06:32:01 GMT 52.313690 4.764252 0 334 5
2022-08-10 06:32:00 GMT 52.313667 4.764252 0 334 5
2022-08-10 06:31:58 GMT 52.313610 4.764290 0 334 6
2022-08-10 06:31:56 GMT 52.313576 4.764328 0 331 6
2022-08-10 06:31:54 GMT 52.313541 4.764347 0 329 6
2022-08-10 06:31:53 GMT 52.313496 4.764366 0 326 6
2022-08-10 06:31:51 GMT 52.313438 4.764404 0 317 6
2022-08-10 06:31:49 GMT 52.313393 4.764423 0 309 6
2022-08-10 06:31:47 GMT 52.313347 4.764462 0 300 6
2022-08-10 06:31:40 GMT 52.313210 4.764690 0 261 6
2022-08-10 06:31:38 GMT 52.313198 4.764748 0 250 6
2022-08-10 06:31:37 GMT 52.313183 4.764810 0 241 6
2022-08-10 06:31:35 GMT 52.313183 4.764888 0 233 5
2022-08-10 06:31:31 GMT 52.313206 4.765026 0 216 3
2022-08-10 06:31:27 GMT 52.313221 4.765072 0 213 2
2022-08-10 06:31:23 GMT 52.313240 4.765084 0 213 0
2022-08-10 06:31:19 GMT 52.313244 4.765091 0 213 2
2022-08-10 06:31:18 GMT 52.313229 4.765065 0 213 3
2022-08-10 06:31:14 GMT 52.313198 4.765034 0 213 4
2022-08-10 06:31:12 GMT 52.313171 4.765006 0 213 4
2022-08-10 06:31:09 GMT 52.313126 4.764967 0 213 5
2022-08-10 06:31:05 GMT 52.313026 4.764862 0 213 6
2022-08-10 06:31:03 GMT 52.312992 4.764824 0 213 6
2022-08-10 06:31:02 GMT 52.312962 4.764790 0 213 6
2022-08-10 06:31:01 GMT 52.312939 4.764771 0 213 6
2022-08-10 06:30:58 GMT 52.312878 4.764709 0 210 6
2022-08-10 06:30:54 GMT 52.312798 4.764633 0 210 6
2022-08-10 06:30:52 GMT 52.312763 4.764594 0 210 6
2022-08-10 06:30:49 GMT 52.312695 4.764555 0 208 6
2022-08-10 06:30:45 GMT 52.312588 4.764476 0 205 6

Making use of Plane Finder data

You are free to use the raw flight data, aircraft information and images provided in this report for your own purposes provided the data is correctly attributed to Plane Finder. We ask that you please credit Plane Finder and link to planefinder.net in close proximity to the content.

Optionally one of the following logos (no smaller then 150x24px) can be used and must link to planefinder.net

Embedding the Plane Finder map

You are welcome to embed the Plane Finder playback map on your website to offer visitors a more interactive experience. We suggest using the following HTML code:

<iframe src="//planefinder.net/data/report/DL71-N837MH-7700-squawk-2022-08-10/map" width="800" height="600" seamless="seamless"></iframe>

Where our data comes from

Plane Finder has a global network of data feeds and antenna radars that receive data broadcast directly from aircraft. The primary technologies used are ADS-B and MLAT. We also show feeds from the FAA and a FLARM glider feed.

Click here to find out more about the Plane Finder network.

How we collect our data